<?xml version="1.0" encoding="UTF-8" standalone="no" ?>
<gpx xmlns="http://www.topografix.com/GPX/1/1" xmlns:xsi="http://www.w3.org/2001/XMLSchema-instance" xsi:schemaLocation="http://www.topografix.com/GPX/1/1 http://www.topografix.com/GPX/1/1/gpx.xsd" version="1.1" creator="VisuGPX - https://www.visugpx.com">
  <metadata>
    <name>Bric Rutund</name>
  </metadata>
  <trk>
    <name><![CDATA[2020-01-24 15:58:32]]></name>
    <trkseg>
      <trkpt lat="44.57435" lon="6.99279">
        <ele>1764.64</ele>
        <time>2020-01-24T07:58:56Z</time>
      </trkpt>
      <trkpt lat="44.57435" lon="6.99281">
        <ele>1766.56</ele>
        <time>2020-01-24T07:59:20Z</time>
      </trkpt>
      <trkpt lat="44.57433" lon="6.9928">
        <ele>1767.04</ele>
        <time>2020-01-24T07:59:39Z</time>
      </trkpt>
      <trkpt lat="44.57432" lon="6.99282">
        <ele>1768</ele>
        <time>2020-01-24T07:59:58Z</time>
      </trkpt>
      <trkpt lat="44.5743" lon="6.9928">
        <ele>1765.12</ele>
        <time>2020-01-24T08:00:12Z</time>
      </trkpt>
      <trkpt lat="44.57424" lon="6.99279">
        <ele>1765.12</ele>
        <time>2020-01-24T08:00:23Z</time>
      </trkpt>
      <trkpt lat="44.57419" lon="6.99286">
        <ele>1765.12</ele>
        <time>2020-01-24T08:00:36Z</time>
      </trkpt>
      <trkpt lat="44.57419" lon="6.99289">
        <ele>1765.12</ele>
        <time>2020-01-24T08:00:54Z</time>
      </trkpt>
      <trkpt lat="44.57418" lon="6.99289">
        <ele>1766.56</ele>
        <time>2020-01-24T08:01:11Z</time>
      </trkpt>
      <trkpt lat="44.57418" lon="6.9929">
        <ele>1763.68</ele>
        <time>2020-01-24T08:01:32Z</time>
      </trkpt>
      <trkpt lat="44.57417" lon="6.99288">
        <ele>1767.52</ele>
        <time>2020-01-24T08:01:49Z</time>
      </trkpt>
      <trkpt lat="44.57417" lon="6.99285">
        <ele>1764.64</ele>
        <time>2020-01-24T08:02:11Z</time>
      </trkpt>
      <trkpt lat="44.57415" lon="6.99288">
        <ele>1765.6</ele>
        <time>2020-01-24T08:02:23Z</time>
      </trkpt>
      <trkpt lat="44.5741" lon="6.99299">
        <ele>1765.6</ele>
        <time>2020-01-24T08:02:36Z</time>
      </trkpt>
      <trkpt lat="44.57405" lon="6.99309">
        <ele>1764.64</ele>
        <time>2020-01-24T08:02:49Z</time>
      </trkpt>
      <trkpt lat="44.57405" lon="6.9931">
        <ele>1765.12</ele>
        <time>2020-01-24T08:02:52Z</time>
      </trkpt>
      <trkpt lat="44.57404" lon="6.99312">
        <ele>1765.12</ele>
        <time>2020-01-24T08:02:54Z</time>
      </trkpt>
      <trkpt lat="44.57399" lon="6.99327">
        <ele>1763.2</ele>
        <time>2020-01-24T08:03:07Z</time>
      </trkpt>
      <trkpt lat="44.57398" lon="6.9933">
        <ele>1761.75</ele>
        <time>2020-01-24T08:03:14Z</time>
      </trkpt>
      <trkpt lat="44.57397" lon="6.99338">
        <ele>1761.75</ele>
        <time>2020-01-24T08:03:27Z</time>
      </trkpt>
      <trkpt lat="44.57396" lon="6.99338">
        <ele>1762.23</ele>
        <time>2020-01-24T08:03:50Z</time>
      </trkpt>
      <trkpt lat="44.57392" lon="6.99339">
        <ele>1762.71</ele>
        <time>2020-01-24T08:04:00Z</time>
      </trkpt>
      <trkpt lat="44.57382" lon="6.99344">
        <ele>1764.16</ele>
        <time>2020-01-24T08:04:13Z</time>
      </trkpt>
      <trkpt lat="44.57373" lon="6.99347">
        <ele>1766.56</ele>
        <time>2020-01-24T08:04:27Z</time>
      </trkpt>
      <trkpt lat="44.57362" lon="6.99347">
        <ele>1767.52</ele>
        <time>2020-01-24T08:04:42Z</time>
      </trkpt>
      <trkpt lat="44.57353" lon="6.99347">
        <ele>1769.92</ele>
        <time>2020-01-24T08:04:55Z</time>
      </trkpt>
      <trkpt lat="44.57344" lon="6.99348">
        <ele>1771.37</ele>
        <time>2020-01-24T08:05:09Z</time>
      </trkpt>
      <trkpt lat="44.57337" lon="6.99353">
        <ele>1770.89</ele>
        <time>2020-01-24T08:05:20Z</time>
      </trkpt>
      <trkpt lat="44.57325" lon="6.99358">
        <ele>1769.92</ele>
        <time>2020-01-24T08:05:34Z</time>
      </trkpt>
      <trkpt lat="44.5732" lon="6.9936">
        <ele>1770.41</ele>
        <time>2020-01-24T08:05:39Z</time>
      </trkpt>
      <trkpt lat="44.57317" lon="6.99364">
        <ele>1770.41</ele>
        <time>2020-01-24T08:05:43Z</time>
      </trkpt>
      <trkpt lat="44.57316" lon="6.99373">
        <ele>1775.21</ele>
        <time>2020-01-24T08:05:55Z</time>
      </trkpt>
      <trkpt lat="44.57317" lon="6.99383">
        <ele>1777.61</ele>
        <time>2020-01-24T08:06:04Z</time>
      </trkpt>
      <trkpt lat="44.5732" lon="6.99396">
        <ele>1782.42</ele>
        <time>2020-01-24T08:06:16Z</time>
      </trkpt>
      <trkpt lat="44.57322" lon="6.99409">
        <ele>1785.31</ele>
        <time>2020-01-24T08:06:28Z</time>
      </trkpt>
      <trkpt lat="44.57323" lon="6.99422">
        <ele>1787.23</ele>
        <time>2020-01-24T08:06:40Z</time>
      </trkpt>
      <trkpt lat="44.57325" lon="6.99435">
        <ele>1788.19</ele>
        <time>2020-01-24T08:06:52Z</time>
      </trkpt>
      <trkpt lat="44.5733" lon="6.99446">
        <ele>1792.03</ele>
        <time>2020-01-24T08:07:05Z</time>
      </trkpt>
      <trkpt lat="44.57333" lon="6.99456">
        <ele>1786.27</ele>
        <time>2020-01-24T08:07:20Z</time>
      </trkpt>
      <trkpt lat="44.57336" lon="6.99465">
        <ele>1785.31</ele>
        <time>2020-01-24T08:07:30Z</time>
      </trkpt>
      <trkpt lat="44.57338" lon="6.99467">
        <ele>1784.82</ele>
        <time>2020-01-24T08:07:42Z</time>
      </trkpt>
      <trkpt lat="44.57334" lon="6.99466">
        <ele>1784.34</ele>
        <time>2020-01-24T08:07:56Z</time>
      </trkpt>
      <trkpt lat="44.5733" lon="6.99466">
        <ele>1780.5</ele>
        <time>2020-01-24T08:08:14Z</time>
      </trkpt>
      <trkpt lat="44.57323" lon="6.99463">
        <ele>1781.46</ele>
        <time>2020-01-24T08:08:25Z</time>
      </trkpt>
      <trkpt lat="44.57321" lon="6.99462">
        <ele>1780.98</ele>
        <time>2020-01-24T08:08:30Z</time>
      </trkpt>
      <trkpt lat="44.57312" lon="6.99456">
        <ele>1781.94</ele>
        <time>2020-01-24T08:08:43Z</time>
      </trkpt>
      <trkpt lat="44.57301" lon="6.99455">
        <ele>1782.9</ele>
        <time>2020-01-24T08:08:57Z</time>
      </trkpt>
      <trkpt lat="44.57294" lon="6.99451">
        <ele>1784.34</ele>
        <time>2020-01-24T08:09:10Z</time>
      </trkpt>
      <trkpt lat="44.57285" lon="6.99446">
        <ele>1785.79</ele>
        <time>2020-01-24T08:09:23Z</time>
      </trkpt>
      <trkpt lat="44.57276" lon="6.99441">
        <ele>1786.75</ele>
        <time>2020-01-24T08:09:37Z</time>
      </trkpt>
      <trkpt lat="44.57268" lon="6.99437">
        <ele>1786.75</ele>
        <time>2020-01-24T08:09:49Z</time>
      </trkpt>
      <trkpt lat="44.5726" lon="6.99431">
        <ele>1787.71</ele>
        <time>2020-01-24T08:10:02Z</time>
      </trkpt>
      <trkpt lat="44.57253" lon="6.99429">
        <ele>1788.67</ele>
        <time>2020-01-24T08:10:14Z</time>
      </trkpt>
      <trkpt lat="44.57245" lon="6.99423">
        <ele>1789.63</ele>
        <time>2020-01-24T08:10:28Z</time>
      </trkpt>
      <trkpt lat="44.57237" lon="6.99417">
        <ele>1792.52</ele>
        <time>2020-01-24T08:10:41Z</time>
      </trkpt>
      <trkpt lat="44.57231" lon="6.99412">
        <ele>1794.92</ele>
        <time>2020-01-24T08:10:53Z</time>
      </trkpt>
      <trkpt lat="44.57225" lon="6.99408">
        <ele>1796.36</ele>
        <time>2020-01-24T08:11:06Z</time>
      </trkpt>
      <trkpt lat="44.57217" lon="6.99402">
        <ele>1797.32</ele>
        <time>2020-01-24T08:11:19Z</time>
      </trkpt>
      <trkpt lat="44.5721" lon="6.99398">
        <ele>1798.28</ele>
        <time>2020-01-24T08:11:32Z</time>
      </trkpt>
      <trkpt lat="44.57207" lon="6.99397">
        <ele>1800.69</ele>
        <time>2020-01-24T08:11:44Z</time>
      </trkpt>
      <trkpt lat="44.57204" lon="6.99395">
        <ele>1800.69</ele>
        <time>2020-01-24T08:11:59Z</time>
      </trkpt>
      <trkpt lat="44.57201" lon="6.99397">
        <ele>1800.69</ele>
        <time>2020-01-24T08:12:11Z</time>
      </trkpt>
      <trkpt lat="44.57193" lon="6.99399">
        <ele>1799.73</ele>
        <time>2020-01-24T08:12:23Z</time>
      </trkpt>
      <trkpt lat="44.57188" lon="6.99402">
        <ele>1800.69</ele>
        <time>2020-01-24T08:12:35Z</time>
      </trkpt>
      <trkpt lat="44.57178" lon="6.99406">
        <ele>1802.61</ele>
        <time>2020-01-24T08:12:47Z</time>
      </trkpt>
      <trkpt lat="44.57169" lon="6.99408">
        <ele>1805.01</ele>
        <time>2020-01-24T08:13:01Z</time>
      </trkpt>
      <trkpt lat="44.57159" lon="6.9941">
        <ele>1806.94</ele>
        <time>2020-01-24T08:13:15Z</time>
      </trkpt>
      <trkpt lat="44.57151" lon="6.99414">
        <ele>1810.3</ele>
        <time>2020-01-24T08:13:27Z</time>
      </trkpt>
      <trkpt lat="44.57143" lon="6.99417">
        <ele>1812.7</ele>
        <time>2020-01-24T08:13:40Z</time>
      </trkpt>
      <trkpt lat="44.57135" lon="6.99421">
        <ele>1816.55</ele>
        <time>2020-01-24T08:13:53Z</time>
      </trkpt>
      <trkpt lat="44.57124" lon="6.99426">
        <ele>1818.95</ele>
        <time>2020-01-24T08:14:09Z</time>
      </trkpt>
      <trkpt lat="44.57118" lon="6.99432">
        <ele>1820.39</ele>
        <time>2020-01-24T08:14:20Z</time>
      </trkpt>
      <trkpt lat="44.57112" lon="6.99442">
        <ele>1822.32</ele>
        <time>2020-01-24T08:14:35Z</time>
      </trkpt>
      <trkpt lat="44.5711" lon="6.99449">
        <ele>1822.8</ele>
        <time>2020-01-24T08:14:45Z</time>
      </trkpt>
      <trkpt lat="44.57107" lon="6.99454">
        <ele>1823.76</ele>
        <time>2020-01-24T08:14:57Z</time>
      </trkpt>
      <trkpt lat="44.57111" lon="6.9946">
        <ele>1824.72</ele>
        <time>2020-01-24T08:15:07Z</time>
      </trkpt>
      <trkpt lat="44.57113" lon="6.99464">
        <ele>1826.16</ele>
        <time>2020-01-24T08:15:22Z</time>
      </trkpt>
      <trkpt lat="44.57109" lon="6.99467">
        <ele>1827.6</ele>
        <time>2020-01-24T08:15:33Z</time>
      </trkpt>
      <trkpt lat="44.57102" lon="6.99468">
        <ele>1828.08</ele>
        <time>2020-01-24T08:15:45Z</time>
      </trkpt>
      <trkpt lat="44.57096" lon="6.99468">
        <ele>1829.05</ele>
        <time>2020-01-24T08:15:57Z</time>
      </trkpt>
      <trkpt lat="44.57089" lon="6.9947">
        <ele>1836.26</ele>
        <time>2020-01-24T08:16:12Z</time>
      </trkpt>
      <trkpt lat="44.57082" lon="6.99474">
        <ele>1837.7</ele>
        <time>2020-01-24T08:16:26Z</time>
      </trkpt>
      <trkpt lat="44.57077" lon="6.99475">
        <ele>1841.06</ele>
        <time>2020-01-24T08:16:39Z</time>
      </trkpt>
      <trkpt lat="44.57074" lon="6.99476">
        <ele>1844.43</ele>
        <time>2020-01-24T08:16:51Z</time>
      </trkpt>
      <trkpt lat="44.57077" lon="6.99481">
        <ele>1845.39</ele>
        <time>2020-01-24T08:17:04Z</time>
      </trkpt>
      <trkpt lat="44.57083" lon="6.99482">
        <ele>1844.91</ele>
        <time>2020-01-24T08:17:19Z</time>
      </trkpt>
      <trkpt lat="44.57092" lon="6.99486">
        <ele>1846.83</ele>
        <time>2020-01-24T08:17:34Z</time>
      </trkpt>
      <trkpt lat="44.57102" lon="6.9949">
        <ele>1849.71</ele>
        <time>2020-01-24T08:17:47Z</time>
      </trkpt>
      <trkpt lat="44.5711" lon="6.99494">
        <ele>1848.27</ele>
        <time>2020-01-24T08:18:02Z</time>
      </trkpt>
      <trkpt lat="44.57119" lon="6.99499">
        <ele>1848.27</ele>
        <time>2020-01-24T08:18:16Z</time>
      </trkpt>
      <trkpt lat="44.57128" lon="6.99509">
        <ele>1849.23</ele>
        <time>2020-01-24T08:18:31Z</time>
      </trkpt>
      <trkpt lat="44.57129" lon="6.99518">
        <ele>1852.6</ele>
        <time>2020-01-24T08:18:46Z</time>
      </trkpt>
      <trkpt lat="44.5713" lon="6.99534">
        <ele>1855.96</ele>
        <time>2020-01-24T08:19:02Z</time>
      </trkpt>
      <trkpt lat="44.57132" lon="6.99548">
        <ele>1858.37</ele>
        <time>2020-01-24T08:19:17Z</time>
      </trkpt>
      <trkpt lat="44.57128" lon="6.99558">
        <ele>1860.77</ele>
        <time>2020-01-24T08:19:31Z</time>
      </trkpt>
      <trkpt lat="44.57125" lon="6.99564">
        <ele>1861.25</ele>
        <time>2020-01-24T08:19:39Z</time>
      </trkpt>
      <trkpt lat="44.57123" lon="6.99572">
        <ele>1862.69</ele>
        <time>2020-01-24T08:19:53Z</time>
      </trkpt>
      <trkpt lat="44.57123" lon="6.99574">
        <ele>1863.65</ele>
        <time>2020-01-24T08:20:00Z</time>
      </trkpt>
      <trkpt lat="44.57121" lon="6.99583">
        <ele>1866.06</ele>
        <time>2020-01-24T08:20:13Z</time>
      </trkpt>
      <trkpt lat="44.57119" lon="6.99581">
        <ele>1863.65</ele>
        <time>2020-01-24T08:20:25Z</time>
      </trkpt>
      <trkpt lat="44.57113" lon="6.99588">
        <ele>1865.09</ele>
        <time>2020-01-24T08:20:41Z</time>
      </trkpt>
      <trkpt lat="44.57107" lon="6.9959">
        <ele>1866.54</ele>
        <time>2020-01-24T08:20:55Z</time>
      </trkpt>
      <trkpt lat="44.57101" lon="6.99592">
        <ele>1868.94</ele>
        <time>2020-01-24T08:21:06Z</time>
      </trkpt>
      <trkpt lat="44.57097" lon="6.99595">
        <ele>1869.9</ele>
        <time>2020-01-24T08:21:17Z</time>
      </trkpt>
      <trkpt lat="44.57093" lon="6.99591">
        <ele>1870.38</ele>
        <time>2020-01-24T08:21:27Z</time>
      </trkpt>
      <trkpt lat="44.57088" lon="6.99594">
        <ele>1870.38</ele>
        <time>2020-01-24T08:21:37Z</time>
      </trkpt>
      <trkpt lat="44.57083" lon="6.99597">
        <ele>1871.34</ele>
        <time>2020-01-24T08:21:54Z</time>
      </trkpt>
      <trkpt lat="44.57077" lon="6.996">
        <ele>1875.19</ele>
        <time>2020-01-24T08:22:10Z</time>
      </trkpt>
      <trkpt lat="44.57071" lon="6.99603">
        <ele>1877.11</ele>
        <time>2020-01-24T08:22:20Z</time>
      </trkpt>
      <trkpt lat="44.57067" lon="6.99608">
        <ele>1878.55</ele>
        <time>2020-01-24T08:22:31Z</time>
      </trkpt>
      <trkpt lat="44.57062" lon="6.99606">
        <ele>1880</ele>
        <time>2020-01-24T08:22:44Z</time>
      </trkpt>
      <trkpt lat="44.57057" lon="6.9961">
        <ele>1880.48</ele>
        <time>2020-01-24T08:22:56Z</time>
      </trkpt>
      <trkpt lat="44.57052" lon="6.99614">
        <ele>1880</ele>
        <time>2020-01-24T08:23:07Z</time>
      </trkpt>
      <trkpt lat="44.57045" lon="6.9961">
        <ele>1880.48</ele>
        <time>2020-01-24T08:23:21Z</time>
      </trkpt>
      <trkpt lat="44.57043" lon="6.99603">
        <ele>1885.28</ele>
        <time>2020-01-24T08:23:39Z</time>
      </trkpt>
      <trkpt lat="44.57034" lon="6.99603">
        <ele>1887.69</ele>
        <time>2020-01-24T08:23:55Z</time>
      </trkpt>
      <trkpt lat="44.5703" lon="6.99609">
        <ele>1889.13</ele>
        <time>2020-01-24T08:24:06Z</time>
      </trkpt>
      <trkpt lat="44.57027" lon="6.99615">
        <ele>1892.97</ele>
        <time>2020-01-24T08:24:16Z</time>
      </trkpt>
      <trkpt lat="44.57025" lon="6.99622">
        <ele>1892.49</ele>
        <time>2020-01-24T08:24:27Z</time>
      </trkpt>
      <trkpt lat="44.57024" lon="6.99634">
        <ele>1893.93</ele>
        <time>2020-01-24T08:24:42Z</time>
      </trkpt>
      <trkpt lat="44.57026" lon="6.99643">
        <ele>1893.93</ele>
        <time>2020-01-24T08:24:54Z</time>
      </trkpt>
      <trkpt lat="44.57033" lon="6.99651">
        <ele>1898.26</ele>
        <time>2020-01-24T08:25:09Z</time>
      </trkpt>
      <trkpt lat="44.57039" lon="6.99656">
        <ele>1900.18</ele>
        <time>2020-01-24T08:25:23Z</time>
      </trkpt>
      <trkpt lat="44.57036" lon="6.99661">
        <ele>1898.26</ele>
        <time>2020-01-24T08:25:37Z</time>
      </trkpt>
      <trkpt lat="44.5703" lon="6.9966">
        <ele>1901.63</ele>
        <time>2020-01-24T08:25:49Z</time>
      </trkpt>
      <trkpt lat="44.57021" lon="6.99662">
        <ele>1902.11</ele>
        <time>2020-01-24T08:26:05Z</time>
      </trkpt>
      <trkpt lat="44.57013" lon="6.99656">
        <ele>1906.43</ele>
        <time>2020-01-24T08:26:21Z</time>
      </trkpt>
      <trkpt lat="44.57011" lon="6.99653">
        <ele>1907.39</ele>
        <time>2020-01-24T08:26:26Z</time>
      </trkpt>
      <trkpt lat="44.57003" lon="6.99648">
        <ele>1911.24</ele>
        <time>2020-01-24T08:26:40Z</time>
      </trkpt>
      <trkpt lat="44.56993" lon="6.99649">
        <ele>1910.28</ele>
        <time>2020-01-24T08:26:54Z</time>
      </trkpt>
      <trkpt lat="44.56984" lon="6.99652">
        <ele>1909.8</ele>
        <time>2020-01-24T08:27:06Z</time>
      </trkpt>
      <trkpt lat="44.56978" lon="6.99655">
        <ele>1907.87</ele>
        <time>2020-01-24T08:27:17Z</time>
      </trkpt>
      <trkpt lat="44.56968" lon="6.99659">
        <ele>1905.95</ele>
        <time>2020-01-24T08:27:31Z</time>
      </trkpt>
      <trkpt lat="44.56961" lon="6.99665">
        <ele>1907.39</ele>
        <time>2020-01-24T08:27:45Z</time>
      </trkpt>
      <trkpt lat="44.56956" lon="6.99671">
        <ele>1907.39</ele>
        <time>2020-01-24T08:27:59Z</time>
      </trkpt>
      <trkpt lat="44.56957" lon="6.99677">
        <ele>1910.76</ele>
        <time>2020-01-24T08:28:10Z</time>
      </trkpt>
      <trkpt lat="44.56964" lon="6.99682">
        <ele>1913.64</ele>
        <time>2020-01-24T08:28:23Z</time>
      </trkpt>
      <trkpt lat="44.56972" lon="6.99683">
        <ele>1918.45</ele>
        <time>2020-01-24T08:28:37Z</time>
      </trkpt>
      <trkpt lat="44.56975" lon="6.99684">
        <ele>1922.29</ele>
        <time>2020-01-24T08:28:50Z</time>
      </trkpt>
      <trkpt lat="44.56975" lon="6.99695">
        <ele>1924.7</ele>
        <time>2020-01-24T08:29:04Z</time>
      </trkpt>
      <trkpt lat="44.5698" lon="6.997">
        <ele>1927.58</ele>
        <time>2020-01-24T08:29:16Z</time>
      </trkpt>
      <trkpt lat="44.56986" lon="6.99704">
        <ele>1935.27</ele>
        <time>2020-01-24T08:29:35Z</time>
      </trkpt>
      <trkpt lat="44.56984" lon="6.99712">
        <ele>1936.71</ele>
        <time>2020-01-24T08:29:52Z</time>
      </trkpt>
      <trkpt lat="44.56976" lon="6.99717">
        <ele>1935.27</ele>
        <time>2020-01-24T08:30:07Z</time>
      </trkpt>
      <trkpt lat="44.56967" lon="6.99723">
        <ele>1934.31</ele>
        <time>2020-01-24T08:30:21Z</time>
      </trkpt>
      <trkpt lat="44.56959" lon="6.99731">
        <ele>1934.31</ele>
        <time>2020-01-24T08:30:38Z</time>
      </trkpt>
      <trkpt lat="44.56952" lon="6.99737">
        <ele>1933.35</ele>
        <time>2020-01-24T08:30:50Z</time>
      </trkpt>
      <trkpt lat="44.56949" lon="6.99738">
        <ele>1931.91</ele>
        <time>2020-01-24T08:31:02Z</time>
      </trkpt>
      <trkpt lat="44.56943" lon="6.9974">
        <ele>1934.79</ele>
        <time>2020-01-24T08:31:17Z</time>
      </trkpt>
      <trkpt lat="44.56941" lon="6.99746">
        <ele>1935.27</ele>
        <time>2020-01-24T08:31:29Z</time>
      </trkpt>
      <trkpt lat="44.56942" lon="6.99753">
        <ele>1939.6</ele>
        <time>2020-01-24T08:31:38Z</time>
      </trkpt>
      <trkpt lat="44.56937" lon="6.99752">
        <ele>1943.92</ele>
        <time>2020-01-24T08:31:49Z</time>
      </trkpt>
      <trkpt lat="44.56932" lon="6.99756">
        <ele>1944.88</ele>
        <time>2020-01-24T08:32:01Z</time>
      </trkpt>
      <trkpt lat="44.56926" lon="6.99759">
        <ele>1945.85</ele>
        <time>2020-01-24T08:32:15Z</time>
      </trkpt>
      <trkpt lat="44.56919" lon="6.9976">
        <ele>1943.44</ele>
        <time>2020-01-24T08:32:27Z</time>
      </trkpt>
      <trkpt lat="44.56912" lon="6.99763">
        <ele>1945.85</ele>
        <time>2020-01-24T08:32:44Z</time>
      </trkpt>
      <trkpt lat="44.56904" lon="6.99771">
        <ele>1947.29</ele>
        <time>2020-01-24T08:32:58Z</time>
      </trkpt>
      <trkpt lat="44.56896" lon="6.99776">
        <ele>1951.13</ele>
        <time>2020-01-24T08:33:15Z</time>
      </trkpt>
      <trkpt lat="44.56891" lon="6.99787">
        <ele>1951.13</ele>
        <time>2020-01-24T08:33:29Z</time>
      </trkpt>
      <trkpt lat="44.56885" lon="6.99789">
        <ele>1952.09</ele>
        <time>2020-01-24T08:33:41Z</time>
      </trkpt>
      <trkpt lat="44.56876" lon="6.9979">
        <ele>1954.98</ele>
        <time>2020-01-24T08:33:55Z</time>
      </trkpt>
      <trkpt lat="44.56868" lon="6.99798">
        <ele>1955.94</ele>
        <time>2020-01-24T08:34:11Z</time>
      </trkpt>
      <trkpt lat="44.56866" lon="6.99805">
        <ele>1956.9</ele>
        <time>2020-01-24T08:34:22Z</time>
      </trkpt>
      <trkpt lat="44.56863" lon="6.99812">
        <ele>1956.42</ele>
        <time>2020-01-24T08:34:34Z</time>
      </trkpt>
      <trkpt lat="44.5686" lon="6.99816">
        <ele>1956.42</ele>
        <time>2020-01-24T08:34:43Z</time>
      </trkpt>
      <trkpt lat="44.56858" lon="6.99825">
        <ele>1958.34</ele>
        <time>2020-01-24T08:34:54Z</time>
      </trkpt>
      <trkpt lat="44.56861" lon="6.99831">
        <ele>1961.71</ele>
        <time>2020-01-24T08:35:05Z</time>
      </trkpt>
      <trkpt lat="44.56859" lon="6.99836">
        <ele>1964.59</ele>
        <time>2020-01-24T08:35:15Z</time>
      </trkpt>
      <trkpt lat="44.56853" lon="6.99843">
        <ele>1967.48</ele>
        <time>2020-01-24T08:35:30Z</time>
      </trkpt>
      <trkpt lat="44.56847" lon="6.99852">
        <ele>1971.8</ele>
        <time>2020-01-24T08:35:48Z</time>
      </trkpt>
      <trkpt lat="44.56844" lon="6.99861">
        <ele>1976.61</ele>
        <time>2020-01-24T08:36:01Z</time>
      </trkpt>
      <trkpt lat="44.56839" lon="6.99865">
        <ele>1980.93</ele>
        <time>2020-01-24T08:36:12Z</time>
      </trkpt>
      <trkpt lat="44.56833" lon="6.9987">
        <ele>1980.45</ele>
        <time>2020-01-24T08:36:30Z</time>
      </trkpt>
      <trkpt lat="44.5683" lon="6.99872">
        <ele>1979.01</ele>
        <time>2020-01-24T08:36:46Z</time>
      </trkpt>
      <trkpt lat="44.56824" lon="6.99876">
        <ele>1982.86</ele>
        <time>2020-01-24T08:37:01Z</time>
      </trkpt>
      <trkpt lat="44.56814" lon="6.9988">
        <ele>1983.82</ele>
        <time>2020-01-24T08:37:15Z</time>
      </trkpt>
      <trkpt lat="44.56807" lon="6.99889">
        <ele>1984.78</ele>
        <time>2020-01-24T08:37:28Z</time>
      </trkpt>
      <trkpt lat="44.56806" lon="6.99893">
        <ele>1985.26</ele>
        <time>2020-01-24T08:37:49Z</time>
      </trkpt>
      <trkpt lat="44.56801" lon="6.99901">
        <ele>1983.34</ele>
        <time>2020-01-24T08:38:03Z</time>
      </trkpt>
      <trkpt lat="44.56803" lon="6.99897">
        <ele>1981.9</ele>
        <time>2020-01-24T08:38:27Z</time>
      </trkpt>
      <trkpt lat="44.56801" lon="6.99892">
        <ele>1984.3</ele>
        <time>2020-01-24T08:38:50Z</time>
      </trkpt>
      <trkpt lat="44.56796" lon="6.99904">
        <ele>1984.78</ele>
        <time>2020-01-24T08:39:04Z</time>
      </trkpt>
      <trkpt lat="44.56787" lon="6.99912">
        <ele>1984.3</ele>
        <time>2020-01-24T08:39:21Z</time>
      </trkpt>
      <trkpt lat="44.56781" lon="6.9992">
        <ele>1985.26</ele>
        <time>2020-01-24T08:39:32Z</time>
      </trkpt>
      <trkpt lat="44.56778" lon="6.99918">
        <ele>1986.7</ele>
        <time>2020-01-24T08:39:42Z</time>
      </trkpt>
      <trkpt lat="44.56772" lon="6.99915">
        <ele>1990.55</ele>
        <time>2020-01-24T08:39:55Z</time>
      </trkpt>
      <trkpt lat="44.5677" lon="6.99914">
        <ele>1995.83</ele>
        <time>2020-01-24T08:40:21Z</time>
      </trkpt>
      <trkpt lat="44.56763" lon="6.99912">
        <ele>1998.24</ele>
        <time>2020-01-24T08:40:33Z</time>
      </trkpt>
      <trkpt lat="44.56754" lon="6.99913">
        <ele>1998.24</ele>
        <time>2020-01-24T08:40:47Z</time>
      </trkpt>
      <trkpt lat="44.56748" lon="6.99909">
        <ele>2002.08</ele>
        <time>2020-01-24T08:40:59Z</time>
      </trkpt>
      <trkpt lat="44.56742" lon="6.99906">
        <ele>2004.01</ele>
        <time>2020-01-24T08:41:11Z</time>
      </trkpt>
      <trkpt lat="44.56732" lon="6.99909">
        <ele>2005.93</ele>
        <time>2020-01-24T08:41:25Z</time>
      </trkpt>
      <trkpt lat="44.56726" lon="6.99918">
        <ele>2003.52</ele>
        <time>2020-01-24T08:41:37Z</time>
      </trkpt>
      <trkpt lat="44.56723" lon="6.99927">
        <ele>2002.08</ele>
        <time>2020-01-24T08:41:49Z</time>
      </trkpt>
      <trkpt lat="44.56717" lon="6.99937">
        <ele>2001.12</ele>
        <time>2020-01-24T08:42:04Z</time>
      </trkpt>
      <trkpt lat="44.56717" lon="6.99944">
        <ele>2002.56</ele>
        <time>2020-01-24T08:42:14Z</time>
      </trkpt>
      <trkpt lat="44.56716" lon="6.99952">
        <ele>2003.52</ele>
        <time>2020-01-24T08:42:25Z</time>
      </trkpt>
      <trkpt lat="44.56711" lon="6.99961">
        <ele>2006.89</ele>
        <time>2020-01-24T08:42:43Z</time>
      </trkpt>
      <trkpt lat="44.56702" lon="6.9997">
        <ele>2009.29</ele>
        <time>2020-01-24T08:43:01Z</time>
      </trkpt>
      <trkpt lat="44.56696" lon="6.99975">
        <ele>2011.7</ele>
        <time>2020-01-24T08:43:13Z</time>
      </trkpt>
      <trkpt lat="44.56697" lon="6.9998">
        <ele>2014.1</ele>
        <time>2020-01-24T08:43:24Z</time>
      </trkpt>
      <trkpt lat="44.56703" lon="6.99987">
        <ele>2016.98</ele>
        <time>2020-01-24T08:43:38Z</time>
      </trkpt>
      <trkpt lat="44.56706" lon="6.99994">
        <ele>2019.39</ele>
        <time>2020-01-24T08:43:50Z</time>
      </trkpt>
      <trkpt lat="44.56708" lon="6.99999">
        <ele>2021.31</ele>
        <time>2020-01-24T08:44:05Z</time>
      </trkpt>
      <trkpt lat="44.56702" lon="7.00004">
        <ele>2024.19</ele>
        <time>2020-01-24T08:44:18Z</time>
      </trkpt>
      <trkpt lat="44.56696" lon="7.00008">
        <ele>2026.6</ele>
        <time>2020-01-24T08:44:33Z</time>
      </trkpt>
      <trkpt lat="44.5669" lon="7.00012">
        <ele>2027.08</ele>
        <time>2020-01-24T08:44:45Z</time>
      </trkpt>
      <trkpt lat="44.56685" lon="7.00016">
        <ele>2027.56</ele>
        <time>2020-01-24T08:44:57Z</time>
      </trkpt>
      <trkpt lat="44.56681" lon="7.00019">
        <ele>2027.56</ele>
        <time>2020-01-24T08:45:11Z</time>
      </trkpt>
      <trkpt lat="44.56683" lon="7.00025">
        <ele>2029.96</ele>
        <time>2020-01-24T08:45:22Z</time>
      </trkpt>
      <trkpt lat="44.56688" lon="7.00031">
        <ele>2032.36</ele>
        <time>2020-01-24T08:45:36Z</time>
      </trkpt>
      <trkpt lat="44.56692" lon="7.00036">
        <ele>2034.29</ele>
        <time>2020-01-24T08:45:48Z</time>
      </trkpt>
      <trkpt lat="44.56688" lon="7.00043">
        <ele>2036.21</ele>
        <time>2020-01-24T08:46:01Z</time>
      </trkpt>
      <trkpt lat="44.56682" lon="7.00046">
        <ele>2038.61</ele>
        <time>2020-01-24T08:46:13Z</time>
      </trkpt>
      <trkpt lat="44.56681" lon="7.00052">
        <ele>2039.09</ele>
        <time>2020-01-24T08:46:24Z</time>
      </trkpt>
      <trkpt lat="44.56685" lon="7.00059">
        <ele>2041.98</ele>
        <time>2020-01-24T08:46:40Z</time>
      </trkpt>
      <trkpt lat="44.56685" lon="7.00067">
        <ele>2043.9</ele>
        <time>2020-01-24T08:46:51Z</time>
      </trkpt>
      <trkpt lat="44.56681" lon="7.00074">
        <ele>2043.42</ele>
        <time>2020-01-24T08:47:03Z</time>
      </trkpt>
      <trkpt lat="44.56679" lon="7.00083">
        <ele>2045.34</ele>
        <time>2020-01-24T08:47:17Z</time>
      </trkpt>
      <trkpt lat="44.56677" lon="7.00083">
        <ele>2045.82</ele>
        <time>2020-01-24T08:47:34Z</time>
      </trkpt>
      <trkpt lat="44.56676" lon="7.00086">
        <ele>2043.9</ele>
        <time>2020-01-24T08:47:58Z</time>
      </trkpt>
      <trkpt lat="44.56682" lon="7.00091">
        <ele>2043.42</ele>
        <time>2020-01-24T08:48:12Z</time>
      </trkpt>
      <trkpt lat="44.56686" lon="7.0009">
        <ele>2041.5</ele>
        <time>2020-01-24T08:48:25Z</time>
      </trkpt>
      <trkpt lat="44.56682" lon="7.0009">
        <ele>2043.42</ele>
        <time>2020-01-24T08:48:38Z</time>
      </trkpt>
      <trkpt lat="44.56679" lon="7.00094">
        <ele>2044.86</ele>
        <time>2020-01-24T08:48:53Z</time>
      </trkpt>
      <trkpt lat="44.56678" lon="7.00102">
        <ele>2048.71</ele>
        <time>2020-01-24T08:49:05Z</time>
      </trkpt>
      <trkpt lat="44.56678" lon="7.00109">
        <ele>2051.59</ele>
        <time>2020-01-24T08:49:18Z</time>
      </trkpt>
      <trkpt lat="44.56685" lon="7.00118">
        <ele>2053.03</ele>
        <time>2020-01-24T08:49:31Z</time>
      </trkpt>
      <trkpt lat="44.5669" lon="7.00121">
        <ele>2054.96</ele>
        <time>2020-01-24T08:49:42Z</time>
      </trkpt>
      <trkpt lat="44.56696" lon="7.00125">
        <ele>2056.4</ele>
        <time>2020-01-24T08:49:54Z</time>
      </trkpt>
      <trkpt lat="44.567" lon="7.00131">
        <ele>2058.8</ele>
        <time>2020-01-24T08:50:07Z</time>
      </trkpt>
      <trkpt lat="44.56699" lon="7.00133">
        <ele>2060.24</ele>
        <time>2020-01-24T08:50:18Z</time>
      </trkpt>
      <trkpt lat="44.56695" lon="7.0014">
        <ele>2061.2</ele>
        <time>2020-01-24T08:50:30Z</time>
      </trkpt>
      <trkpt lat="44.56693" lon="7.00148">
        <ele>2064.09</ele>
        <time>2020-01-24T08:50:43Z</time>
      </trkpt>
      <trkpt lat="44.56689" lon="7.00157">
        <ele>2066.49</ele>
        <time>2020-01-24T08:50:58Z</time>
      </trkpt>
      <trkpt lat="44.56686" lon="7.00163">
        <ele>2067.93</ele>
        <time>2020-01-24T08:51:10Z</time>
      </trkpt>
      <trkpt lat="44.56685" lon="7.00172">
        <ele>2068.89</ele>
        <time>2020-01-24T08:51:21Z</time>
      </trkpt>
      <trkpt lat="44.56686" lon="7.00179">
        <ele>2069.38</ele>
        <time>2020-01-24T08:51:34Z</time>
      </trkpt>
      <trkpt lat="44.56694" lon="7.00179">
        <ele>2071.3</ele>
        <time>2020-01-24T08:51:45Z</time>
      </trkpt>
      <trkpt lat="44.56695" lon="7.0018">
        <ele>2072.74</ele>
        <time>2020-01-24T08:51:57Z</time>
      </trkpt>
      <trkpt lat="44.56693" lon="7.00188">
        <ele>2073.22</ele>
        <time>2020-01-24T08:52:11Z</time>
      </trkpt>
      <trkpt lat="44.56699" lon="7.00189">
        <ele>2073.22</ele>
        <time>2020-01-24T08:52:21Z</time>
      </trkpt>
      <trkpt lat="44.56705" lon="7.00194">
        <ele>2075.14</ele>
        <time>2020-01-24T08:52:38Z</time>
      </trkpt>
      <trkpt lat="44.56704" lon="7.00194">
        <ele>2076.1</ele>
        <time>2020-01-24T08:52:50Z</time>
      </trkpt>
      <trkpt lat="44.56702" lon="7.00201">
        <ele>2080.43</ele>
        <time>2020-01-24T08:53:02Z</time>
      </trkpt>
      <trkpt lat="44.56698" lon="7.00208">
        <ele>2082.83</ele>
        <time>2020-01-24T08:53:13Z</time>
      </trkpt>
      <trkpt lat="44.56695" lon="7.00212">
        <ele>2083.79</ele>
        <time>2020-01-24T08:53:25Z</time>
      </trkpt>
      <trkpt lat="44.56692" lon="7.0022">
        <ele>2083.79</ele>
        <time>2020-01-24T08:53:37Z</time>
      </trkpt>
      <trkpt lat="44.56697" lon="7.00226">
        <ele>2083.79</ele>
        <time>2020-01-24T08:53:51Z</time>
      </trkpt>
      <trkpt lat="44.56697" lon="7.0023">
        <ele>2084.28</ele>
        <time>2020-01-24T08:54:03Z</time>
      </trkpt>
      <trkpt lat="44.56695" lon="7.00239">
        <ele>2085.72</ele>
        <time>2020-01-24T08:54:19Z</time>
      </trkpt>
      <trkpt lat="44.56699" lon="7.00242">
        <ele>2088.12</ele>
        <time>2020-01-24T08:54:29Z</time>
      </trkpt>
      <trkpt lat="44.56705" lon="7.00249">
        <ele>2091</ele>
        <time>2020-01-24T08:54:43Z</time>
      </trkpt>
      <trkpt lat="44.56707" lon="7.00254">
        <ele>2093.89</ele>
        <time>2020-01-24T08:54:56Z</time>
      </trkpt>
      <trkpt lat="44.56712" lon="7.00262">
        <ele>2097.25</ele>
        <time>2020-01-24T08:55:09Z</time>
      </trkpt>
      <trkpt lat="44.5671" lon="7.00271">
        <ele>2097.73</ele>
        <time>2020-01-24T08:55:23Z</time>
      </trkpt>
      <trkpt lat="44.56709" lon="7.00279">
        <ele>2099.18</ele>
        <time>2020-01-24T08:55:36Z</time>
      </trkpt>
      <trkpt lat="44.56711" lon="7.00284">
        <ele>2101.1</ele>
        <time>2020-01-24T08:55:49Z</time>
      </trkpt>
      <trkpt lat="44.56712" lon="7.00295">
        <ele>2102.54</ele>
        <time>2020-01-24T08:56:04Z</time>
      </trkpt>
      <trkpt lat="44.56715" lon="7.00302">
        <ele>2107.35</ele>
        <time>2020-01-24T08:56:17Z</time>
      </trkpt>
      <trkpt lat="44.56715" lon="7.00308">
        <ele>2109.27</ele>
        <time>2020-01-24T08:56:30Z</time>
      </trkpt>
      <trkpt lat="44.5672" lon="7.00314">
        <ele>2109.75</ele>
        <time>2020-01-24T08:56:41Z</time>
      </trkpt>
      <trkpt lat="44.56727" lon="7.00318">
        <ele>2112.63</ele>
        <time>2020-01-24T08:56:55Z</time>
      </trkpt>
      <trkpt lat="44.56724" lon="7.00325">
        <ele>2113.12</ele>
        <time>2020-01-24T08:57:09Z</time>
      </trkpt>
      <trkpt lat="44.56722" lon="7.00325">
        <ele>2113.12</ele>
        <time>2020-01-24T08:57:22Z</time>
      </trkpt>
      <trkpt lat="44.56724" lon="7.00325">
        <ele>2110.71</ele>
        <time>2020-01-24T08:57:40Z</time>
      </trkpt>
      <trkpt lat="44.56725" lon="7.00325">
        <ele>2111.19</ele>
        <time>2020-01-24T08:58:04Z</time>
      </trkpt>
      <trkpt lat="44.56723" lon="7.00326">
        <ele>2113.12</ele>
        <time>2020-01-24T08:58:14Z</time>
      </trkpt>
      <trkpt lat="44.56721" lon="7.00325">
        <ele>2112.15</ele>
        <time>2020-01-24T08:58:35Z</time>
      </trkpt>
      <trkpt lat="44.56719" lon="7.0033">
        <ele>2112.15</ele>
        <time>2020-01-24T08:58:51Z</time>
      </trkpt>
      <trkpt lat="44.56724" lon="7.00331">
        <ele>2113.12</ele>
        <time>2020-01-24T08:59:03Z</time>
      </trkpt>
      <trkpt lat="44.56728" lon="7.00335">
        <ele>2114.56</ele>
        <time>2020-01-24T08:59:14Z</time>
      </trkpt>
      <trkpt lat="44.56732" lon="7.00338">
        <ele>2116</ele>
        <time>2020-01-24T08:59:24Z</time>
      </trkpt>
      <trkpt lat="44.56737" lon="7.00339">
        <ele>2119.36</ele>
        <time>2020-01-24T08:59:37Z</time>
      </trkpt>
      <trkpt lat="44.56741" lon="7.00346">
        <ele>2120.81</ele>
        <time>2020-01-24T08:59:49Z</time>
      </trkpt>
      <trkpt lat="44.56745" lon="7.00352">
        <ele>2122.25</ele>
        <time>2020-01-24T09:00:04Z</time>
      </trkpt>
      <trkpt lat="44.56748" lon="7.00357">
        <ele>2125.13</ele>
        <time>2020-01-24T09:00:20Z</time>
      </trkpt>
      <trkpt lat="44.56745" lon="7.00361">
        <ele>2127.53</ele>
        <time>2020-01-24T09:00:31Z</time>
      </trkpt>
      <trkpt lat="44.56741" lon="7.00363">
        <ele>2128.5</ele>
        <time>2020-01-24T09:00:43Z</time>
      </trkpt>
      <trkpt lat="44.56737" lon="7.00372">
        <ele>2127.53</ele>
        <time>2020-01-24T09:00:56Z</time>
      </trkpt>
      <trkpt lat="44.56734" lon="7.0038">
        <ele>2128.5</ele>
        <time>2020-01-24T09:01:09Z</time>
      </trkpt>
      <trkpt lat="44.56732" lon="7.00386">
        <ele>2130.42</ele>
        <time>2020-01-24T09:01:23Z</time>
      </trkpt>
      <trkpt lat="44.5673" lon="7.00395">
        <ele>2132.34</ele>
        <time>2020-01-24T09:01:36Z</time>
      </trkpt>
      <trkpt lat="44.56735" lon="7.00407">
        <ele>2132.34</ele>
        <time>2020-01-24T09:01:50Z</time>
      </trkpt>
      <trkpt lat="44.56739" lon="7.00414">
        <ele>2133.78</ele>
        <time>2020-01-24T09:02:03Z</time>
      </trkpt>
      <trkpt lat="44.56738" lon="7.00421">
        <ele>2135.23</ele>
        <time>2020-01-24T09:02:16Z</time>
      </trkpt>
      <trkpt lat="44.56736" lon="7.00426">
        <ele>2137.63</ele>
        <time>2020-01-24T09:02:30Z</time>
      </trkpt>
      <trkpt lat="44.56734" lon="7.00433">
        <ele>2138.59</ele>
        <time>2020-01-24T09:02:42Z</time>
      </trkpt>
      <trkpt lat="44.56731" lon="7.0044">
        <ele>2139.55</ele>
        <time>2020-01-24T09:02:53Z</time>
      </trkpt>
      <trkpt lat="44.56728" lon="7.00447">
        <ele>2141.47</ele>
        <time>2020-01-24T09:03:09Z</time>
      </trkpt>
      <trkpt lat="44.56723" lon="7.00452">
        <ele>2144.84</ele>
        <time>2020-01-24T09:03:22Z</time>
      </trkpt>
      <trkpt lat="44.5672" lon="7.00456">
        <ele>2147.72</ele>
        <time>2020-01-24T09:03:34Z</time>
      </trkpt>
      <trkpt lat="44.56718" lon="7.00457">
        <ele>2149.65</ele>
        <time>2020-01-24T09:03:48Z</time>
      </trkpt>
      <trkpt lat="44.56716" lon="7.00467">
        <ele>2149.65</ele>
        <time>2020-01-24T09:03:59Z</time>
      </trkpt>
      <trkpt lat="44.56721" lon="7.00473">
        <ele>2151.09</ele>
        <time>2020-01-24T09:04:10Z</time>
      </trkpt>
      <trkpt lat="44.56728" lon="7.00477">
        <ele>2154.45</ele>
        <time>2020-01-24T09:04:21Z</time>
      </trkpt>
      <trkpt lat="44.56733" lon="7.00479">
        <ele>2156.37</ele>
        <time>2020-01-24T09:04:34Z</time>
      </trkpt>
      <trkpt lat="44.56737" lon="7.00483">
        <ele>2157.82</ele>
        <time>2020-01-24T09:04:48Z</time>
      </trkpt>
      <trkpt lat="44.56741" lon="7.00486">
        <ele>2158.78</ele>
        <time>2020-01-24T09:05:01Z</time>
      </trkpt>
      <trkpt lat="44.56743" lon="7.00489">
        <ele>2160.7</ele>
        <time>2020-01-24T09:05:18Z</time>
      </trkpt>
      <trkpt lat="44.56742" lon="7.00496">
        <ele>2160.22</ele>
        <time>2020-01-24T09:05:30Z</time>
      </trkpt>
      <trkpt lat="44.5674" lon="7.005">
        <ele>2161.66</ele>
        <time>2020-01-24T09:05:41Z</time>
      </trkpt>
      <trkpt lat="44.56737" lon="7.00506">
        <ele>2163.58</ele>
        <time>2020-01-24T09:05:54Z</time>
      </trkpt>
      <trkpt lat="44.56734" lon="7.00512">
        <ele>2165.51</ele>
        <time>2020-01-24T09:06:08Z</time>
      </trkpt>
      <trkpt lat="44.56736" lon="7.00515">
        <ele>2167.43</ele>
        <time>2020-01-24T09:06:17Z</time>
      </trkpt>
      <trkpt lat="44.56737" lon="7.0052">
        <ele>2169.35</ele>
        <time>2020-01-24T09:06:27Z</time>
      </trkpt>
      <trkpt lat="44.56732" lon="7.00523">
        <ele>2171.76</ele>
        <time>2020-01-24T09:06:38Z</time>
      </trkpt>
      <trkpt lat="44.56729" lon="7.00529">
        <ele>2171.76</ele>
        <time>2020-01-24T09:06:51Z</time>
      </trkpt>
      <trkpt lat="44.56725" lon="7.00537">
        <ele>2172.72</ele>
        <time>2020-01-24T09:07:05Z</time>
      </trkpt>
      <trkpt lat="44.56723" lon="7.00543">
        <ele>2174.16</ele>
        <time>2020-01-24T09:07:18Z</time>
      </trkpt>
      <trkpt lat="44.5672" lon="7.00549">
        <ele>2175.12</ele>
        <time>2020-01-24T09:07:28Z</time>
      </trkpt>
      <trkpt lat="44.56728" lon="7.00556">
        <ele>2178</ele>
        <time>2020-01-24T09:07:44Z</time>
      </trkpt>
      <trkpt lat="44.56732" lon="7.00563">
        <ele>2181.85</ele>
        <time>2020-01-24T09:07:56Z</time>
      </trkpt>
      <trkpt lat="44.56735" lon="7.00571">
        <ele>2183.29</ele>
        <time>2020-01-24T09:08:08Z</time>
      </trkpt>
      <trkpt lat="44.56739" lon="7.00574">
        <ele>2184.25</ele>
        <time>2020-01-24T09:08:20Z</time>
      </trkpt>
      <trkpt lat="44.56744" lon="7.00579">
        <ele>2187.62</ele>
        <time>2020-01-24T09:08:33Z</time>
      </trkpt>
      <trkpt lat="44.56746" lon="7.00582">
        <ele>2190.5</ele>
        <time>2020-01-24T09:08:47Z</time>
      </trkpt>
      <trkpt lat="44.56751" lon="7.00586">
        <ele>2191.94</ele>
        <time>2020-01-24T09:09:03Z</time>
      </trkpt>
      <trkpt lat="44.56761" lon="7.00592">
        <ele>2192.9</ele>
        <time>2020-01-24T09:09:20Z</time>
      </trkpt>
      <trkpt lat="44.56765" lon="7.00597">
        <ele>2194.83</ele>
        <time>2020-01-24T09:09:34Z</time>
      </trkpt>
      <trkpt lat="44.56772" lon="7.00604">
        <ele>2196.27</ele>
        <time>2020-01-24T09:09:51Z</time>
      </trkpt>
      <trkpt lat="44.56767" lon="7.00608">
        <ele>2198.19</ele>
        <time>2020-01-24T09:10:02Z</time>
      </trkpt>
      <trkpt lat="44.56761" lon="7.00615">
        <ele>2197.23</ele>
        <time>2020-01-24T09:10:14Z</time>
      </trkpt>
      <trkpt lat="44.56754" lon="7.00627">
        <ele>2200.59</ele>
        <time>2020-01-24T09:10:34Z</time>
      </trkpt>
      <trkpt lat="44.56756" lon="7.00638">
        <ele>2202.04</ele>
        <time>2020-01-24T09:10:46Z</time>
      </trkpt>
      <trkpt lat="44.56759" lon="7.00648">
        <ele>2203</ele>
        <time>2020-01-24T09:11:05Z</time>
      </trkpt>
      <trkpt lat="44.56759" lon="7.00656">
        <ele>2204.44</ele>
        <time>2020-01-24T09:11:19Z</time>
      </trkpt>
      <trkpt lat="44.56755" lon="7.0066">
        <ele>2207.32</ele>
        <time>2020-01-24T09:11:32Z</time>
      </trkpt>
      <trkpt lat="44.56749" lon="7.00665">
        <ele>2208.29</ele>
        <time>2020-01-24T09:11:44Z</time>
      </trkpt>
      <trkpt lat="44.56746" lon="7.00674">
        <ele>2208.77</ele>
        <time>2020-01-24T09:11:55Z</time>
      </trkpt>
      <trkpt lat="44.56742" lon="7.0068">
        <ele>2211.65</ele>
        <time>2020-01-24T09:12:06Z</time>
      </trkpt>
      <trkpt lat="44.5674" lon="7.00685">
        <ele>2215.01</ele>
        <time>2020-01-24T09:12:22Z</time>
      </trkpt>
      <trkpt lat="44.56736" lon="7.00689">
        <ele>2217.9</ele>
        <time>2020-01-24T09:12:38Z</time>
      </trkpt>
      <trkpt lat="44.56733" lon="7.00692">
        <ele>2218.38</ele>
        <time>2020-01-24T09:12:47Z</time>
      </trkpt>
      <trkpt lat="44.56728" lon="7.00694">
        <ele>2219.34</ele>
        <time>2020-01-24T09:12:59Z</time>
      </trkpt>
      <trkpt lat="44.56729" lon="7.00704">
        <ele>2220.3</ele>
        <time>2020-01-24T09:13:10Z</time>
      </trkpt>
      <trkpt lat="44.56738" lon="7.00709">
        <ele>2220.78</ele>
        <time>2020-01-24T09:13:25Z</time>
      </trkpt>
      <trkpt lat="44.56746" lon="7.00713">
        <ele>2222.71</ele>
        <time>2020-01-24T09:13:40Z</time>
      </trkpt>
      <trkpt lat="44.56743" lon="7.00716">
        <ele>2223.67</ele>
        <time>2020-01-24T09:13:57Z</time>
      </trkpt>
      <trkpt lat="44.56739" lon="7.00722">
        <ele>2224.63</ele>
        <time>2020-01-24T09:14:10Z</time>
      </trkpt>
      <trkpt lat="44.56744" lon="7.00724">
        <ele>2226.07</ele>
        <time>2020-01-24T09:14:20Z</time>
      </trkpt>
      <trkpt lat="44.5675" lon="7.00729">
        <ele>2230.4</ele>
        <time>2020-01-24T09:14:34Z</time>
      </trkpt>
      <trkpt lat="44.56755" lon="7.00734">
        <ele>2231.84</ele>
        <time>2020-01-24T09:14:47Z</time>
      </trkpt>
      <trkpt lat="44.5675" lon="7.00737">
        <ele>2233.28</ele>
        <time>2020-01-24T09:15:04Z</time>
      </trkpt>
      <trkpt lat="44.56743" lon="7.00745">
        <ele>2235.2</ele>
        <time>2020-01-24T09:15:18Z</time>
      </trkpt>
      <trkpt lat="44.56745" lon="7.00753">
        <ele>2235.2</ele>
        <time>2020-01-24T09:15:30Z</time>
      </trkpt>
      <trkpt lat="44.56751" lon="7.0076">
        <ele>2238.09</ele>
        <time>2020-01-24T09:15:46Z</time>
      </trkpt>
      <trkpt lat="44.56756" lon="7.00771">
        <ele>2240.01</ele>
        <time>2020-01-24T09:16:03Z</time>
      </trkpt>
      <trkpt lat="44.56757" lon="7.00772">
        <ele>2240.49</ele>
        <time>2020-01-24T09:16:04Z</time>
      </trkpt>
      <trkpt lat="44.56765" lon="7.00778">
        <ele>2241.93</ele>
        <time>2020-01-24T09:16:18Z</time>
      </trkpt>
      <trkpt lat="44.56768" lon="7.0078">
        <ele>2243.85</ele>
        <time>2020-01-24T09:16:32Z</time>
      </trkpt>
      <trkpt lat="44.5676" lon="7.00785">
        <ele>2242.89</ele>
        <time>2020-01-24T09:16:45Z</time>
      </trkpt>
      <trkpt lat="44.56755" lon="7.00788">
        <ele>2244.82</ele>
        <time>2020-01-24T09:17:02Z</time>
      </trkpt>
      <trkpt lat="44.56754" lon="7.00791">
        <ele>2246.26</ele>
        <time>2020-01-24T09:17:13Z</time>
      </trkpt>
      <trkpt lat="44.5676" lon="7.00796">
        <ele>2249.14</ele>
        <time>2020-01-24T09:17:26Z</time>
      </trkpt>
      <trkpt lat="44.56763" lon="7.00801">
        <ele>2250.58</ele>
        <time>2020-01-24T09:17:40Z</time>
      </trkpt>
      <trkpt lat="44.56769" lon="7.00808">
        <ele>2253.47</ele>
        <time>2020-01-24T09:17:54Z</time>
      </trkpt>
      <trkpt lat="44.56768" lon="7.00806">
        <ele>2254.43</ele>
        <time>2020-01-24T09:18:05Z</time>
      </trkpt>
      <trkpt lat="44.56763" lon="7.00812">
        <ele>2254.43</ele>
        <time>2020-01-24T09:18:17Z</time>
      </trkpt>
      <trkpt lat="44.56759" lon="7.00819">
        <ele>2256.83</ele>
        <time>2020-01-24T09:18:28Z</time>
      </trkpt>
      <trkpt lat="44.56758" lon="7.00826">
        <ele>2257.79</ele>
        <time>2020-01-24T09:18:39Z</time>
      </trkpt>
      <trkpt lat="44.56753" lon="7.0083">
        <ele>2258.75</ele>
        <time>2020-01-24T09:18:55Z</time>
      </trkpt>
      <trkpt lat="44.5675" lon="7.00832">
        <ele>2260.2</ele>
        <time>2020-01-24T09:19:10Z</time>
      </trkpt>
      <trkpt lat="44.56754" lon="7.00835">
        <ele>2260.2</ele>
        <time>2020-01-24T09:19:22Z</time>
      </trkpt>
      <trkpt lat="44.5676" lon="7.00837">
        <ele>2262.12</ele>
        <time>2020-01-24T09:19:36Z</time>
      </trkpt>
      <trkpt lat="44.56765" lon="7.00842">
        <ele>2265</ele>
        <time>2020-01-24T09:19:49Z</time>
      </trkpt>
      <trkpt lat="44.56769" lon="7.00846">
        <ele>2265.48</ele>
        <time>2020-01-24T09:20:02Z</time>
      </trkpt>
      <trkpt lat="44.56771" lon="7.00853">
        <ele>2266.93</ele>
        <time>2020-01-24T09:20:19Z</time>
      </trkpt>
      <trkpt lat="44.56768" lon="7.00855">
        <ele>2268.85</ele>
        <time>2020-01-24T09:20:29Z</time>
      </trkpt>
      <trkpt lat="44.56763" lon="7.00859">
        <ele>2269.81</ele>
        <time>2020-01-24T09:20:42Z</time>
      </trkpt>
      <trkpt lat="44.56757" lon="7.0086">
        <ele>2272.21</ele>
        <time>2020-01-24T09:20:54Z</time>
      </trkpt>
      <trkpt lat="44.56753" lon="7.00864">
        <ele>2274.14</ele>
        <time>2020-01-24T09:21:06Z</time>
      </trkpt>
      <trkpt lat="44.56758" lon="7.00867">
        <ele>2275.1</ele>
        <time>2020-01-24T09:21:18Z</time>
      </trkpt>
      <trkpt lat="44.5676" lon="7.00877">
        <ele>2277.02</ele>
        <time>2020-01-24T09:21:35Z</time>
      </trkpt>
      <trkpt lat="44.5676" lon="7.00886">
        <ele>2278.94</ele>
        <time>2020-01-24T09:21:47Z</time>
      </trkpt>
      <trkpt lat="44.5676" lon="7.00895">
        <ele>2280.87</ele>
        <time>2020-01-24T09:21:59Z</time>
      </trkpt>
      <trkpt lat="44.5676" lon="7.00904">
        <ele>2283.27</ele>
        <time>2020-01-24T09:22:15Z</time>
      </trkpt>
      <trkpt lat="44.5676" lon="7.00908">
        <ele>2284.23</ele>
        <time>2020-01-24T09:22:27Z</time>
      </trkpt>
      <trkpt lat="44.56759" lon="7.00915">
        <ele>2285.19</ele>
        <time>2020-01-24T09:22:40Z</time>
      </trkpt>
      <trkpt lat="44.56755" lon="7.00915">
        <ele>2287.59</ele>
        <time>2020-01-24T09:22:52Z</time>
      </trkpt>
      <trkpt lat="44.56748" lon="7.00913">
        <ele>2288.08</ele>
        <time>2020-01-24T09:23:05Z</time>
      </trkpt>
      <trkpt lat="44.56741" lon="7.00911">
        <ele>2288.08</ele>
        <time>2020-01-24T09:23:20Z</time>
      </trkpt>
      <trkpt lat="44.56737" lon="7.0091">
        <ele>2292.88</ele>
        <time>2020-01-24T09:23:36Z</time>
      </trkpt>
      <trkpt lat="44.56735" lon="7.00911">
        <ele>2292.88</ele>
        <time>2020-01-24T09:23:54Z</time>
      </trkpt>
      <trkpt lat="44.56737" lon="7.00918">
        <ele>2293.84</ele>
        <time>2020-01-24T09:24:04Z</time>
      </trkpt>
      <trkpt lat="44.56743" lon="7.00925">
        <ele>2295.28</ele>
        <time>2020-01-24T09:24:17Z</time>
      </trkpt>
      <trkpt lat="44.56749" lon="7.00935">
        <ele>2295.77</ele>
        <time>2020-01-24T09:24:32Z</time>
      </trkpt>
      <trkpt lat="44.56753" lon="7.00944">
        <ele>2297.21</ele>
        <time>2020-01-24T09:24:47Z</time>
      </trkpt>
      <trkpt lat="44.56756" lon="7.00955">
        <ele>2299.61</ele>
        <time>2020-01-24T09:25:02Z</time>
      </trkpt>
      <trkpt lat="44.56759" lon="7.00963">
        <ele>2299.61</ele>
        <time>2020-01-24T09:25:13Z</time>
      </trkpt>
      <trkpt lat="44.5676" lon="7.00977">
        <ele>2303.46</ele>
        <time>2020-01-24T09:25:35Z</time>
      </trkpt>
      <trkpt lat="44.56761" lon="7.00986">
        <ele>2306.34</ele>
        <time>2020-01-24T09:25:47Z</time>
      </trkpt>
      <trkpt lat="44.56764" lon="7.00996">
        <ele>2307.78</ele>
        <time>2020-01-24T09:25:59Z</time>
      </trkpt>
      <trkpt lat="44.56761" lon="7.01">
        <ele>2309.22</ele>
        <time>2020-01-24T09:26:08Z</time>
      </trkpt>
      <trkpt lat="44.56759" lon="7.01">
        <ele>2311.15</ele>
        <time>2020-01-24T09:26:18Z</time>
      </trkpt>
      <trkpt lat="44.56755" lon="7.00998">
        <ele>2312.59</ele>
        <time>2020-01-24T09:26:29Z</time>
      </trkpt>
      <trkpt lat="44.56748" lon="7.00999">
        <ele>2314.51</ele>
        <time>2020-01-24T09:26:44Z</time>
      </trkpt>
      <trkpt lat="44.56743" lon="7.00998">
        <ele>2315.47</ele>
        <time>2020-01-24T09:27:00Z</time>
      </trkpt>
      <trkpt lat="44.56741" lon="7.00999">
        <ele>2315.47</ele>
        <time>2020-01-24T09:27:11Z</time>
      </trkpt>
      <trkpt lat="44.56742" lon="7.01007">
        <ele>2316.91</ele>
        <time>2020-01-24T09:27:26Z</time>
      </trkpt>
      <trkpt lat="44.56744" lon="7.01018">
        <ele>2316.91</ele>
        <time>2020-01-24T09:27:46Z</time>
      </trkpt>
      <trkpt lat="44.56743" lon="7.01024">
        <ele>2318.36</ele>
        <time>2020-01-24T09:27:57Z</time>
      </trkpt>
      <trkpt lat="44.56738" lon="7.01025">
        <ele>2320.28</ele>
        <time>2020-01-24T09:28:11Z</time>
      </trkpt>
      <trkpt lat="44.56729" lon="7.01028">
        <ele>2321.72</ele>
        <time>2020-01-24T09:28:25Z</time>
      </trkpt>
      <trkpt lat="44.56724" lon="7.01034">
        <ele>2322.68</ele>
        <time>2020-01-24T09:28:39Z</time>
      </trkpt>
      <trkpt lat="44.56722" lon="7.01037">
        <ele>2325.57</ele>
        <time>2020-01-24T09:28:50Z</time>
      </trkpt>
      <trkpt lat="44.56722" lon="7.0104">
        <ele>2325.57</ele>
        <time>2020-01-24T09:29:05Z</time>
      </trkpt>
      <trkpt lat="44.56724" lon="7.01048">
        <ele>2325.57</ele>
        <time>2020-01-24T09:29:30Z</time>
      </trkpt>
      <trkpt lat="44.56731" lon="7.01052">
        <ele>2327.49</ele>
        <time>2020-01-24T09:29:42Z</time>
      </trkpt>
      <trkpt lat="44.56737" lon="7.01056">
        <ele>2329.89</ele>
        <time>2020-01-24T09:29:56Z</time>
      </trkpt>
      <trkpt lat="44.56737" lon="7.01064">
        <ele>2331.33</ele>
        <time>2020-01-24T09:30:08Z</time>
      </trkpt>
      <trkpt lat="44.5674" lon="7.01071">
        <ele>2332.3</ele>
        <time>2020-01-24T09:30:23Z</time>
      </trkpt>
      <trkpt lat="44.56739" lon="7.01078">
        <ele>2331.81</ele>
        <time>2020-01-24T09:30:41Z</time>
      </trkpt>
      <trkpt lat="44.56739" lon="7.01089">
        <ele>2333.74</ele>
        <time>2020-01-24T09:30:54Z</time>
      </trkpt>
      <trkpt lat="44.5674" lon="7.01102">
        <ele>2334.7</ele>
        <time>2020-01-24T09:31:10Z</time>
      </trkpt>
      <trkpt lat="44.56742" lon="7.01112">
        <ele>2337.58</ele>
        <time>2020-01-24T09:31:24Z</time>
      </trkpt>
      <trkpt lat="44.56744" lon="7.01124">
        <ele>2339.51</ele>
        <time>2020-01-24T09:31:40Z</time>
      </trkpt>
      <trkpt lat="44.5674" lon="7.01129">
        <ele>2339.99</ele>
        <time>2020-01-24T09:31:55Z</time>
      </trkpt>
      <trkpt lat="44.56735" lon="7.0113">
        <ele>2340.95</ele>
        <time>2020-01-24T09:32:08Z</time>
      </trkpt>
      <trkpt lat="44.56732" lon="7.01133">
        <ele>2342.87</ele>
        <time>2020-01-24T09:32:18Z</time>
      </trkpt>
      <trkpt lat="44.56734" lon="7.01143">
        <ele>2344.79</ele>
        <time>2020-01-24T09:32:33Z</time>
      </trkpt>
      <trkpt lat="44.56734" lon="7.01152">
        <ele>2345.27</ele>
        <time>2020-01-24T09:32:44Z</time>
      </trkpt>
      <trkpt lat="44.56732" lon="7.0115">
        <ele>2346.23</ele>
        <time>2020-01-24T09:33:04Z</time>
      </trkpt>
      <trkpt lat="44.56731" lon="7.01151">
        <ele>2348.16</ele>
        <time>2020-01-24T09:33:20Z</time>
      </trkpt>
      <trkpt lat="44.56727" lon="7.01152">
        <ele>2349.12</ele>
        <time>2020-01-24T09:33:33Z</time>
      </trkpt>
      <trkpt lat="44.5672" lon="7.01156">
        <ele>2351.04</ele>
        <time>2020-01-24T09:33:46Z</time>
      </trkpt>
      <trkpt lat="44.56717" lon="7.01166">
        <ele>2353.93</ele>
        <time>2020-01-24T09:34:00Z</time>
      </trkpt>
      <trkpt lat="44.56712" lon="7.01168">
        <ele>2356.81</ele>
        <time>2020-01-24T09:34:13Z</time>
      </trkpt>
      <trkpt lat="44.56706" lon="7.01173">
        <ele>2357.77</ele>
        <time>2020-01-24T09:34:28Z</time>
      </trkpt>
      <trkpt lat="44.567" lon="7.01179">
        <ele>2358.25</ele>
        <time>2020-01-24T09:34:37Z</time>
      </trkpt>
      <trkpt lat="44.56696" lon="7.01184">
        <ele>2360.65</ele>
        <time>2020-01-24T09:34:51Z</time>
      </trkpt>
      <trkpt lat="44.56691" lon="7.01191">
        <ele>2362.1</ele>
        <time>2020-01-24T09:35:02Z</time>
      </trkpt>
      <trkpt lat="44.56687" lon="7.01196">
        <ele>2364.02</ele>
        <time>2020-01-24T09:35:14Z</time>
      </trkpt>
      <trkpt lat="44.56681" lon="7.012">
        <ele>2364.98</ele>
        <time>2020-01-24T09:35:27Z</time>
      </trkpt>
      <trkpt lat="44.56675" lon="7.01202">
        <ele>2364.98</ele>
        <time>2020-01-24T09:35:39Z</time>
      </trkpt>
      <trkpt lat="44.56667" lon="7.01206">
        <ele>2365.46</ele>
        <time>2020-01-24T09:35:54Z</time>
      </trkpt>
      <trkpt lat="44.56662" lon="7.01213">
        <ele>2367.86</ele>
        <time>2020-01-24T09:36:09Z</time>
      </trkpt>
      <trkpt lat="44.56659" lon="7.01222">
        <ele>2370.75</ele>
        <time>2020-01-24T09:36:22Z</time>
      </trkpt>
      <trkpt lat="44.56656" lon="7.01226">
        <ele>2371.71</ele>
        <time>2020-01-24T09:36:33Z</time>
      </trkpt>
      <trkpt lat="44.56653" lon="7.01228">
        <ele>2373.63</ele>
        <time>2020-01-24T09:36:45Z</time>
      </trkpt>
      <trkpt lat="44.5665" lon="7.01231">
        <ele>2374.59</ele>
        <time>2020-01-24T09:37:05Z</time>
      </trkpt>
      <trkpt lat="44.56647" lon="7.01235">
        <ele>2375.55</ele>
        <time>2020-01-24T09:37:18Z</time>
      </trkpt>
      <trkpt lat="44.56644" lon="7.01238">
        <ele>2377.48</ele>
        <time>2020-01-24T09:37:31Z</time>
      </trkpt>
      <trkpt lat="44.56641" lon="7.01241">
        <ele>2377.48</ele>
        <time>2020-01-24T09:37:46Z</time>
      </trkpt>
      <trkpt lat="44.56645" lon="7.01245">
        <ele>2379.4</ele>
        <time>2020-01-24T09:37:59Z</time>
      </trkpt>
      <trkpt lat="44.56652" lon="7.01248">
        <ele>2381.8</ele>
        <time>2020-01-24T09:38:14Z</time>
      </trkpt>
      <trkpt lat="44.56654" lon="7.01249">
        <ele>2385.17</ele>
        <time>2020-01-24T09:38:29Z</time>
      </trkpt>
      <trkpt lat="44.56654" lon="7.01251">
        <ele>2384.69</ele>
        <time>2020-01-24T09:39:00Z</time>
      </trkpt>
      <trkpt lat="44.56657" lon="7.01251">
        <ele>2385.17</ele>
        <time>2020-01-24T09:39:16Z</time>
      </trkpt>
      <trkpt lat="44.56654" lon="7.01249">
        <ele>2386.61</ele>
        <time>2020-01-24T09:39:28Z</time>
      </trkpt>
      <trkpt lat="44.56647" lon="7.01252">
        <ele>2385.17</ele>
        <time>2020-01-24T09:39:41Z</time>
      </trkpt>
      <trkpt lat="44.56648" lon="7.01257">
        <ele>2384.69</ele>
        <time>2020-01-24T09:39:53Z</time>
      </trkpt>
      <trkpt lat="44.56651" lon="7.01259">
        <ele>2385.17</ele>
        <time>2020-01-24T09:40:02Z</time>
      </trkpt>
      <trkpt lat="44.56645" lon="7.01261">
        <ele>2383.73</ele>
        <time>2020-01-24T09:40:13Z</time>
      </trkpt>
      <trkpt lat="44.56637" lon="7.01264">
        <ele>2386.13</ele>
        <time>2020-01-24T09:40:28Z</time>
      </trkpt>
      <trkpt lat="44.56637" lon="7.0127">
        <ele>2387.57</ele>
        <time>2020-01-24T09:40:44Z</time>
      </trkpt>
      <trkpt lat="44.56647" lon="7.01279">
        <ele>2389.97</ele>
        <time>2020-01-24T09:40:57Z</time>
      </trkpt>
      <trkpt lat="44.56644" lon="7.01279">
        <ele>2389.49</ele>
        <time>2020-01-24T09:41:07Z</time>
      </trkpt>
      <trkpt lat="44.56636" lon="7.01282">
        <ele>2389.97</ele>
        <time>2020-01-24T09:41:20Z</time>
      </trkpt>
      <trkpt lat="44.56638" lon="7.01286">
        <ele>2391.9</ele>
        <time>2020-01-24T09:41:31Z</time>
      </trkpt>
      <trkpt lat="44.56645" lon="7.01289">
        <ele>2395.74</ele>
        <time>2020-01-24T09:41:45Z</time>
      </trkpt>
      <trkpt lat="44.5665" lon="7.01293">
        <ele>2396.7</ele>
        <time>2020-01-24T09:41:57Z</time>
      </trkpt>
      <trkpt lat="44.56655" lon="7.013">
        <ele>2398.63</ele>
        <time>2020-01-24T09:42:09Z</time>
      </trkpt>
      <trkpt lat="44.56647" lon="7.01303">
        <ele>2399.59</ele>
        <time>2020-01-24T09:42:24Z</time>
      </trkpt>
      <trkpt lat="44.56641" lon="7.01308">
        <ele>2402.47</ele>
        <time>2020-01-24T09:42:36Z</time>
      </trkpt>
      <trkpt lat="44.56637" lon="7.01309">
        <ele>2402.47</ele>
        <time>2020-01-24T09:42:42Z</time>
      </trkpt>
      <trkpt lat="44.56628" lon="7.01312">
        <ele>2404.88</ele>
        <time>2020-01-24T09:42:57Z</time>
      </trkpt>
      <trkpt lat="44.56621" lon="7.01314">
        <ele>2406.32</ele>
        <time>2020-01-24T09:43:11Z</time>
      </trkpt>
      <trkpt lat="44.56614" lon="7.01317">
        <ele>2407.28</ele>
        <time>2020-01-24T09:43:23Z</time>
      </trkpt>
      <trkpt lat="44.56608" lon="7.0132">
        <ele>2407.28</ele>
        <time>2020-01-24T09:43:37Z</time>
      </trkpt>
      <trkpt lat="44.56607" lon="7.0133">
        <ele>2408.72</ele>
        <time>2020-01-24T09:43:48Z</time>
      </trkpt>
      <trkpt lat="44.5661" lon="7.01335">
        <ele>2410.16</ele>
        <time>2020-01-24T09:44:02Z</time>
      </trkpt>
      <trkpt lat="44.56609" lon="7.0134">
        <ele>2411.6</ele>
        <time>2020-01-24T09:44:20Z</time>
      </trkpt>
      <trkpt lat="44.56608" lon="7.01346">
        <ele>2411.6</ele>
        <time>2020-01-24T09:44:38Z</time>
      </trkpt>
      <trkpt lat="44.56604" lon="7.01356">
        <ele>2414.97</ele>
        <time>2020-01-24T09:44:51Z</time>
      </trkpt>
      <trkpt lat="44.56603" lon="7.0137">
        <ele>2415.93</ele>
        <time>2020-01-24T09:45:05Z</time>
      </trkpt>
      <trkpt lat="44.56603" lon="7.01378">
        <ele>2415.93</ele>
        <time>2020-01-24T09:45:11Z</time>
      </trkpt>
      <trkpt lat="44.56606" lon="7.01394">
        <ele>2417.37</ele>
        <time>2020-01-24T09:45:26Z</time>
      </trkpt>
      <trkpt lat="44.56601" lon="7.01406">
        <ele>2415.45</ele>
        <time>2020-01-24T09:45:41Z</time>
      </trkpt>
      <trkpt lat="44.566" lon="7.0141">
        <ele>2414.97</ele>
        <time>2020-01-24T09:45:45Z</time>
      </trkpt>
      <trkpt lat="44.56594" lon="7.01417">
        <ele>2417.85</ele>
        <time>2020-01-24T09:46:02Z</time>
      </trkpt>
      <trkpt lat="44.56596" lon="7.01425">
        <ele>2421.22</ele>
        <time>2020-01-24T09:46:15Z</time>
      </trkpt>
      <trkpt lat="44.56594" lon="7.01429">
        <ele>2422.18</ele>
        <time>2020-01-24T09:46:28Z</time>
      </trkpt>
      <trkpt lat="44.56589" lon="7.01429">
        <ele>2420.74</ele>
        <time>2020-01-24T09:46:43Z</time>
      </trkpt>
      <trkpt lat="44.56585" lon="7.01431">
        <ele>2422.66</ele>
        <time>2020-01-24T09:46:57Z</time>
      </trkpt>
      <trkpt lat="44.56579" lon="7.01434">
        <ele>2423.62</ele>
        <time>2020-01-24T09:47:11Z</time>
      </trkpt>
      <trkpt lat="44.56574" lon="7.01437">
        <ele>2427.47</ele>
        <time>2020-01-24T09:47:26Z</time>
      </trkpt>
      <trkpt lat="44.56575" lon="7.01445">
        <ele>2430.35</ele>
        <time>2020-01-24T09:47:36Z</time>
      </trkpt>
      <trkpt lat="44.56574" lon="7.01449">
        <ele>2431.31</ele>
        <time>2020-01-24T09:47:47Z</time>
      </trkpt>
      <trkpt lat="44.56573" lon="7.01455">
        <ele>2431.31</ele>
        <time>2020-01-24T09:47:57Z</time>
      </trkpt>
      <trkpt lat="44.56576" lon="7.01461">
        <ele>2433.71</ele>
        <time>2020-01-24T09:48:08Z</time>
      </trkpt>
      <trkpt lat="44.56578" lon="7.01468">
        <ele>2437.08</ele>
        <time>2020-01-24T09:48:19Z</time>
      </trkpt>
      <trkpt lat="44.5658" lon="7.01473">
        <ele>2439.48</ele>
        <time>2020-01-24T09:48:32Z</time>
      </trkpt>
      <trkpt lat="44.56583" lon="7.0147">
        <ele>2446.21</ele>
        <time>2020-01-24T09:49:04Z</time>
      </trkpt>
      <trkpt lat="44.56577" lon="7.01471">
        <ele>2439.96</ele>
        <time>2020-01-24T09:49:20Z</time>
      </trkpt>
      <trkpt lat="44.56568" lon="7.01474">
        <ele>2440.44</ele>
        <time>2020-01-24T09:49:33Z</time>
      </trkpt>
      <trkpt lat="44.56566" lon="7.01474">
        <ele>2440.92</ele>
        <time>2020-01-24T09:49:38Z</time>
      </trkpt>
      <trkpt lat="44.56562" lon="7.01475">
        <ele>2441.41</ele>
        <time>2020-01-24T09:49:49Z</time>
      </trkpt>
      <trkpt lat="44.56566" lon="7.01483">
        <ele>2443.81</ele>
        <time>2020-01-24T09:50:03Z</time>
      </trkpt>
      <trkpt lat="44.56565" lon="7.01483">
        <ele>2443.81</ele>
        <time>2020-01-24T09:50:18Z</time>
      </trkpt>
      <trkpt lat="44.56559" lon="7.01484">
        <ele>2446.21</ele>
        <time>2020-01-24T09:50:30Z</time>
      </trkpt>
      <trkpt lat="44.56556" lon="7.01483">
        <ele>2446.69</ele>
        <time>2020-01-24T09:50:45Z</time>
      </trkpt>
      <trkpt lat="44.56551" lon="7.01483">
        <ele>2448.62</ele>
        <time>2020-01-24T09:50:59Z</time>
      </trkpt>
      <trkpt lat="44.56548" lon="7.01482">
        <ele>2451.02</ele>
        <time>2020-01-24T09:51:10Z</time>
      </trkpt>
      <trkpt lat="44.56545" lon="7.01484">
        <ele>2451.02</ele>
        <time>2020-01-24T09:51:21Z</time>
      </trkpt>
      <trkpt lat="44.56548" lon="7.01489">
        <ele>2453.42</ele>
        <time>2020-01-24T09:51:34Z</time>
      </trkpt>
      <trkpt lat="44.5655" lon="7.01495">
        <ele>2453.9</ele>
        <time>2020-01-24T09:51:46Z</time>
      </trkpt>
      <trkpt lat="44.56549" lon="7.01497">
        <ele>2454.86</ele>
        <time>2020-01-24T09:52:01Z</time>
      </trkpt>
      <trkpt lat="44.56545" lon="7.01494">
        <ele>2455.34</ele>
        <time>2020-01-24T09:52:13Z</time>
      </trkpt>
      <trkpt lat="44.5654" lon="7.01494">
        <ele>2457.75</ele>
        <time>2020-01-24T09:52:29Z</time>
      </trkpt>
      <trkpt lat="44.56537" lon="7.01494">
        <ele>2458.71</ele>
        <time>2020-01-24T09:52:40Z</time>
      </trkpt>
      <trkpt lat="44.56541" lon="7.01498">
        <ele>2459.67</ele>
        <time>2020-01-24T09:52:52Z</time>
      </trkpt>
      <trkpt lat="44.56544" lon="7.01506">
        <ele>2460.63</ele>
        <time>2020-01-24T09:53:04Z</time>
      </trkpt>
      <trkpt lat="44.56542" lon="7.01507">
        <ele>2459.19</ele>
        <time>2020-01-24T09:53:22Z</time>
      </trkpt>
      <trkpt lat="44.56537" lon="7.01504">
        <ele>2462.07</ele>
        <time>2020-01-24T09:53:36Z</time>
      </trkpt>
      <trkpt lat="44.56532" lon="7.01505">
        <ele>2461.59</ele>
        <time>2020-01-24T09:53:49Z</time>
      </trkpt>
      <trkpt lat="44.5653" lon="7.01506">
        <ele>2463.04</ele>
        <time>2020-01-24T09:53:59Z</time>
      </trkpt>
      <trkpt lat="44.56525" lon="7.01508">
        <ele>2464.48</ele>
        <time>2020-01-24T09:54:11Z</time>
      </trkpt>
      <trkpt lat="44.56523" lon="7.0151">
        <ele>2464.96</ele>
        <time>2020-01-24T09:54:31Z</time>
      </trkpt>
      <trkpt lat="44.56524" lon="7.01511">
        <ele>2465.92</ele>
        <time>2020-01-24T09:54:46Z</time>
      </trkpt>
      <trkpt lat="44.56529" lon="7.01515">
        <ele>2466.88</ele>
        <time>2020-01-24T09:55:01Z</time>
      </trkpt>
      <trkpt lat="44.56535" lon="7.01518">
        <ele>2469.76</ele>
        <time>2020-01-24T09:55:14Z</time>
      </trkpt>
      <trkpt lat="44.56539" lon="7.0152">
        <ele>2471.69</ele>
        <time>2020-01-24T09:55:26Z</time>
      </trkpt>
      <trkpt lat="44.56543" lon="7.01523">
        <ele>2473.61</ele>
        <time>2020-01-24T09:55:39Z</time>
      </trkpt>
      <trkpt lat="44.56548" lon="7.01526">
        <ele>2476.97</ele>
        <time>2020-01-24T09:55:53Z</time>
      </trkpt>
      <trkpt lat="44.56542" lon="7.01523">
        <ele>2469.76</ele>
        <time>2020-01-24T09:56:08Z</time>
      </trkpt>
      <trkpt lat="44.56536" lon="7.01524">
        <ele>2471.21</ele>
        <time>2020-01-24T09:56:23Z</time>
      </trkpt>
      <trkpt lat="44.56536" lon="7.01528">
        <ele>2471.21</ele>
        <time>2020-01-24T09:56:41Z</time>
      </trkpt>
      <trkpt lat="44.56541" lon="7.01533">
        <ele>2473.13</ele>
        <time>2020-01-24T09:56:53Z</time>
      </trkpt>
      <trkpt lat="44.56545" lon="7.01538">
        <ele>2476.49</ele>
        <time>2020-01-24T09:57:07Z</time>
      </trkpt>
      <trkpt lat="44.56548" lon="7.01539">
        <ele>2479.38</ele>
        <time>2020-01-24T09:57:21Z</time>
      </trkpt>
      <trkpt lat="44.56552" lon="7.01542">
        <ele>2482.26</ele>
        <time>2020-01-24T09:57:35Z</time>
      </trkpt>
      <trkpt lat="44.56554" lon="7.01545">
        <ele>2483.22</ele>
        <time>2020-01-24T09:57:40Z</time>
      </trkpt>
      <trkpt lat="44.56557" lon="7.01552">
        <ele>2482.74</ele>
        <time>2020-01-24T09:57:54Z</time>
      </trkpt>
      <trkpt lat="44.56559" lon="7.01555">
        <ele>2485.63</ele>
        <time>2020-01-24T09:58:07Z</time>
      </trkpt>
      <trkpt lat="44.56562" lon="7.01559">
        <ele>2486.59</ele>
        <time>2020-01-24T09:58:18Z</time>
      </trkpt>
      <trkpt lat="44.56559" lon="7.01558">
        <ele>2483.7</ele>
        <time>2020-01-24T09:58:31Z</time>
      </trkpt>
      <trkpt lat="44.56553" lon="7.0156">
        <ele>2483.22</ele>
        <time>2020-01-24T09:58:43Z</time>
      </trkpt>
      <trkpt lat="44.56549" lon="7.01563">
        <ele>2485.63</ele>
        <time>2020-01-24T09:58:55Z</time>
      </trkpt>
      <trkpt lat="44.56544" lon="7.01568">
        <ele>2486.11</ele>
        <time>2020-01-24T09:59:08Z</time>
      </trkpt>
      <trkpt lat="44.56545" lon="7.01571">
        <ele>2488.99</ele>
        <time>2020-01-24T09:59:21Z</time>
      </trkpt>
      <trkpt lat="44.56546" lon="7.01574">
        <ele>2488.99</ele>
        <time>2020-01-24T09:59:26Z</time>
      </trkpt>
      <trkpt lat="44.56549" lon="7.01582">
        <ele>2490.43</ele>
        <time>2020-01-24T09:59:37Z</time>
      </trkpt>
      <trkpt lat="44.56548" lon="7.01586">
        <ele>2491.87</ele>
        <time>2020-01-24T09:59:48Z</time>
      </trkpt>
      <trkpt lat="44.5655" lon="7.01593">
        <ele>2493.32</ele>
        <time>2020-01-24T10:00:02Z</time>
      </trkpt>
      <trkpt lat="44.56555" lon="7.01598">
        <ele>2495.72</ele>
        <time>2020-01-24T10:00:13Z</time>
      </trkpt>
      <trkpt lat="44.5655" lon="7.016">
        <ele>2496.2</ele>
        <time>2020-01-24T10:00:23Z</time>
      </trkpt>
      <trkpt lat="44.56552" lon="7.01607">
        <ele>2498.6</ele>
        <time>2020-01-24T10:00:37Z</time>
      </trkpt>
      <trkpt lat="44.56562" lon="7.01612">
        <ele>2499.57</ele>
        <time>2020-01-24T10:00:50Z</time>
      </trkpt>
      <trkpt lat="44.56563" lon="7.01614">
        <ele>2501.97</ele>
        <time>2020-01-24T10:01:02Z</time>
      </trkpt>
      <trkpt lat="44.56563" lon="7.01619">
        <ele>2502.93</ele>
        <time>2020-01-24T10:01:16Z</time>
      </trkpt>
      <trkpt lat="44.56563" lon="7.01622">
        <ele>2502.93</ele>
        <time>2020-01-24T10:01:33Z</time>
      </trkpt>
      <trkpt lat="44.56561" lon="7.01617">
        <ele>2500.53</ele>
        <time>2020-01-24T10:01:47Z</time>
      </trkpt>
      <trkpt lat="44.56561" lon="7.01617">
        <ele>2501.49</ele>
        <time>2020-01-24T10:02:15Z</time>
      </trkpt>
      <trkpt lat="44.56558" lon="7.01617">
        <ele>2502.93</ele>
        <time>2020-01-24T10:02:53Z</time>
      </trkpt>
      <trkpt lat="44.56555" lon="7.01617">
        <ele>2502.93</ele>
        <time>2020-01-24T10:03:30Z</time>
      </trkpt>
      <trkpt lat="44.56556" lon="7.01616">
        <ele>2502.45</ele>
        <time>2020-01-24T10:04:06Z</time>
      </trkpt>
      <trkpt lat="44.56561" lon="7.01617">
        <ele>2500.53</ele>
        <time>2020-01-24T10:04:38Z</time>
      </trkpt>
      <trkpt lat="44.56562" lon="7.01613">
        <ele>2502.45</ele>
        <time>2020-01-24T10:05:13Z</time>
      </trkpt>
      <trkpt lat="44.56564" lon="7.01613">
        <ele>2500.53</ele>
        <time>2020-01-24T10:05:45Z</time>
      </trkpt>
      <trkpt lat="44.56561" lon="7.01618">
        <ele>2501.49</ele>
        <time>2020-01-24T10:06:22Z</time>
      </trkpt>
      <trkpt lat="44.56563" lon="7.01616">
        <ele>2500.05</ele>
        <time>2020-01-24T10:06:57Z</time>
      </trkpt>
      <trkpt lat="44.56564" lon="7.01617">
        <ele>2500.53</ele>
        <time>2020-01-24T10:07:09Z</time>
      </trkpt>
      <trkpt lat="44.56564" lon="7.01616">
        <ele>2500.53</ele>
        <time>2020-01-24T10:07:28Z</time>
      </trkpt>
      <trkpt lat="44.56563" lon="7.01615">
        <ele>2501.49</ele>
        <time>2020-01-24T10:07:46Z</time>
      </trkpt>
      <trkpt lat="44.56563" lon="7.01611">
        <ele>2501.49</ele>
        <time>2020-01-24T10:07:57Z</time>
      </trkpt>
      <trkpt lat="44.56558" lon="7.01606">
        <ele>2499.08</ele>
        <time>2020-01-24T10:08:11Z</time>
      </trkpt>
      <trkpt lat="44.56554" lon="7.01605">
        <ele>2497.64</ele>
        <time>2020-01-24T10:08:18Z</time>
      </trkpt>
      <trkpt lat="44.56544" lon="7.01602">
        <ele>2496.68</ele>
        <time>2020-01-24T10:08:31Z</time>
      </trkpt>
      <trkpt lat="44.56539" lon="7.01598">
        <ele>2496.68</ele>
        <time>2020-01-24T10:08:43Z</time>
      </trkpt>
      <trkpt lat="44.56534" lon="7.01593">
        <ele>2495.72</ele>
        <time>2020-01-24T10:08:56Z</time>
      </trkpt>
      <trkpt lat="44.5653" lon="7.01593">
        <ele>2495.72</ele>
        <time>2020-01-24T10:09:09Z</time>
      </trkpt>
      <trkpt lat="44.5653" lon="7.01592">
        <ele>2495.72</ele>
        <time>2020-01-24T10:09:22Z</time>
      </trkpt>
      <trkpt lat="44.56529" lon="7.01591">
        <ele>2495.72</ele>
        <time>2020-01-24T10:09:41Z</time>
      </trkpt>
      <trkpt lat="44.56529" lon="7.01591">
        <ele>2495.72</ele>
        <time>2020-01-24T10:09:59Z</time>
      </trkpt>
      <trkpt lat="44.56529" lon="7.0159">
        <ele>2496.2</ele>
        <time>2020-01-24T10:10:11Z</time>
      </trkpt>
      <trkpt lat="44.56529" lon="7.01589">
        <ele>2494.28</ele>
        <time>2020-01-24T10:10:30Z</time>
      </trkpt>
      <trkpt lat="44.56529" lon="7.0159">
        <ele>2494.28</ele>
        <time>2020-01-24T10:10:45Z</time>
      </trkpt>
      <trkpt lat="44.56529" lon="7.01589">
        <ele>2495.24</ele>
        <time>2020-01-24T10:11:00Z</time>
      </trkpt>
      <trkpt lat="44.56528" lon="7.0159">
        <ele>2494.28</ele>
        <time>2020-01-24T10:11:23Z</time>
      </trkpt>
      <trkpt lat="44.56528" lon="7.0159">
        <ele>2493.8</ele>
        <time>2020-01-24T10:11:38Z</time>
      </trkpt>
      <trkpt lat="44.56524" lon="7.01589">
        <ele>2496.68</ele>
        <time>2020-01-24T10:12:13Z</time>
      </trkpt>
      <trkpt lat="44.56524" lon="7.01589">
        <ele>2497.64</ele>
        <time>2020-01-24T10:12:48Z</time>
      </trkpt>
      <trkpt lat="44.56524" lon="7.01589">
        <ele>2497.16</ele>
        <time>2020-01-24T10:13:30Z</time>
      </trkpt>
      <trkpt lat="44.56525" lon="7.01589">
        <ele>2494.76</ele>
        <time>2020-01-24T10:14:09Z</time>
      </trkpt>
      <trkpt lat="44.56527" lon="7.01588">
        <ele>2492.36</ele>
        <time>2020-01-24T10:14:51Z</time>
      </trkpt>
      <trkpt lat="44.56526" lon="7.01588">
        <ele>2492.36</ele>
        <time>2020-01-24T10:15:33Z</time>
      </trkpt>
      <trkpt lat="44.56529" lon="7.01588">
        <ele>2492.36</ele>
        <time>2020-01-24T10:16:10Z</time>
      </trkpt>
      <trkpt lat="44.56529" lon="7.01591">
        <ele>2491.39</ele>
        <time>2020-01-24T10:16:56Z</time>
      </trkpt>
      <trkpt lat="44.56526" lon="7.01594">
        <ele>2498.6</ele>
        <time>2020-01-24T10:17:43Z</time>
      </trkpt>
      <trkpt lat="44.56527" lon="7.01599">
        <ele>2496.2</ele>
        <time>2020-01-24T10:18:21Z</time>
      </trkpt>
      <trkpt lat="44.56526" lon="7.01596">
        <ele>2496.68</ele>
        <time>2020-01-24T10:18:58Z</time>
      </trkpt>
      <trkpt lat="44.56525" lon="7.01594">
        <ele>2497.64</ele>
        <time>2020-01-24T10:19:43Z</time>
      </trkpt>
      <trkpt lat="44.56528" lon="7.0159">
        <ele>2498.6</ele>
        <time>2020-01-24T10:20:08Z</time>
      </trkpt>
      <trkpt lat="44.56528" lon="7.01591">
        <ele>2497.16</ele>
        <time>2020-01-24T10:20:25Z</time>
      </trkpt>
      <trkpt lat="44.56526" lon="7.0159">
        <ele>2495.72</ele>
        <time>2020-01-24T10:20:45Z</time>
      </trkpt>
      <trkpt lat="44.56529" lon="7.0159">
        <ele>2494.28</ele>
        <time>2020-01-24T10:21:27Z</time>
      </trkpt>
      <trkpt lat="44.56529" lon="7.01591">
        <ele>2492.84</ele>
        <time>2020-01-24T10:22:19Z</time>
      </trkpt>
      <trkpt lat="44.56529" lon="7.0159">
        <ele>2494.28</ele>
        <time>2020-01-24T10:22:56Z</time>
      </trkpt>
      <trkpt lat="44.56529" lon="7.01591">
        <ele>2492.84</ele>
        <time>2020-01-24T10:23:35Z</time>
      </trkpt>
      <trkpt lat="44.5653" lon="7.0159">
        <ele>2491.87</ele>
        <time>2020-01-24T10:24:15Z</time>
      </trkpt>
      <trkpt lat="44.5653" lon="7.01589">
        <ele>2493.32</ele>
        <time>2020-01-24T10:24:53Z</time>
      </trkpt>
      <trkpt lat="44.5653" lon="7.01594">
        <ele>2495.24</ele>
        <time>2020-01-24T10:25:25Z</time>
      </trkpt>
      <trkpt lat="44.56527" lon="7.01596">
        <ele>2496.2</ele>
        <time>2020-01-24T10:26:05Z</time>
      </trkpt>
      <trkpt lat="44.56527" lon="7.01596">
        <ele>2499.08</ele>
        <time>2020-01-24T10:26:41Z</time>
      </trkpt>
      <trkpt lat="44.56526" lon="7.01598">
        <ele>2501.97</ele>
        <time>2020-01-24T10:27:18Z</time>
      </trkpt>
      <trkpt lat="44.56528" lon="7.01595">
        <ele>2500.53</ele>
        <time>2020-01-24T10:27:51Z</time>
      </trkpt>
      <trkpt lat="44.56527" lon="7.01595">
        <ele>2498.6</ele>
        <time>2020-01-24T10:28:22Z</time>
      </trkpt>
      <trkpt lat="44.56526" lon="7.01597">
        <ele>2499.57</ele>
        <time>2020-01-24T10:28:58Z</time>
      </trkpt>
      <trkpt lat="44.56529" lon="7.01595">
        <ele>2496.68</ele>
        <time>2020-01-24T10:29:39Z</time>
      </trkpt>
      <trkpt lat="44.56528" lon="7.01593">
        <ele>2496.2</ele>
        <time>2020-01-24T10:30:06Z</time>
      </trkpt>
      <trkpt lat="44.56527" lon="7.01593">
        <ele>2496.68</ele>
        <time>2020-01-24T10:30:17Z</time>
      </trkpt>
      <trkpt lat="44.56527" lon="7.01592">
        <ele>2495.72</ele>
        <time>2020-01-24T10:30:34Z</time>
      </trkpt>
      <trkpt lat="44.56529" lon="7.0159">
        <ele>2495.72</ele>
        <time>2020-01-24T10:30:55Z</time>
      </trkpt>
      <trkpt lat="44.56529" lon="7.01588">
        <ele>2495.72</ele>
        <time>2020-01-24T10:31:12Z</time>
      </trkpt>
      <trkpt lat="44.5653" lon="7.0159">
        <ele>2495.24</ele>
        <time>2020-01-24T10:31:31Z</time>
      </trkpt>
      <trkpt lat="44.56531" lon="7.01591">
        <ele>2496.2</ele>
        <time>2020-01-24T10:31:48Z</time>
      </trkpt>
      <trkpt lat="44.56531" lon="7.01591">
        <ele>2495.72</ele>
        <time>2020-01-24T10:32:01Z</time>
      </trkpt>
      <trkpt lat="44.56534" lon="7.01593">
        <ele>2496.2</ele>
        <time>2020-01-24T10:32:20Z</time>
      </trkpt>
      <trkpt lat="44.56535" lon="7.01593">
        <ele>2495.24</ele>
        <time>2020-01-24T10:32:36Z</time>
      </trkpt>
      <trkpt lat="44.56535" lon="7.01593">
        <ele>2495.24</ele>
        <time>2020-01-24T10:33:00Z</time>
      </trkpt>
      <trkpt lat="44.56534" lon="7.01592">
        <ele>2496.2</ele>
        <time>2020-01-24T10:33:16Z</time>
      </trkpt>
      <trkpt lat="44.56537" lon="7.01591">
        <ele>2496.2</ele>
        <time>2020-01-24T10:33:28Z</time>
      </trkpt>
      <trkpt lat="44.56538" lon="7.01591">
        <ele>2495.72</ele>
        <time>2020-01-24T10:33:30Z</time>
      </trkpt>
      <trkpt lat="44.56547" lon="7.01584">
        <ele>2491.87</ele>
        <time>2020-01-24T10:33:42Z</time>
      </trkpt>
      <trkpt lat="44.56549" lon="7.0158">
        <ele>2490.91</ele>
        <time>2020-01-24T10:33:46Z</time>
      </trkpt>
      <trkpt lat="44.56548" lon="7.01573">
        <ele>2488.51</ele>
        <time>2020-01-24T10:33:58Z</time>
      </trkpt>
      <trkpt lat="44.56547" lon="7.0157">
        <ele>2486.11</ele>
        <time>2020-01-24T10:34:12Z</time>
      </trkpt>
      <trkpt lat="44.56544" lon="7.01567">
        <ele>2484.66</ele>
        <time>2020-01-24T10:34:26Z</time>
      </trkpt>
      <trkpt lat="44.56538" lon="7.0156">
        <ele>2482.26</ele>
        <time>2020-01-24T10:34:39Z</time>
      </trkpt>
      <trkpt lat="44.5654" lon="7.01555">
        <ele>2482.26</ele>
        <time>2020-01-24T10:34:45Z</time>
      </trkpt>
      <trkpt lat="44.56543" lon="7.01552">
        <ele>2483.22</ele>
        <time>2020-01-24T10:34:57Z</time>
      </trkpt>
      <trkpt lat="44.56547" lon="7.01548">
        <ele>2482.26</ele>
        <time>2020-01-24T10:35:07Z</time>
      </trkpt>
      <trkpt lat="44.56548" lon="7.01544">
        <ele>2480.34</ele>
        <time>2020-01-24T10:35:19Z</time>
      </trkpt>
      <trkpt lat="44.56547" lon="7.01544">
        <ele>2480.82</ele>
        <time>2020-01-24T10:35:21Z</time>
      </trkpt>
      <trkpt lat="44.56545" lon="7.01533">
        <ele>2475.05</ele>
        <time>2020-01-24T10:35:28Z</time>
      </trkpt>
      <trkpt lat="44.56539" lon="7.01525">
        <ele>2469.28</ele>
        <time>2020-01-24T10:35:41Z</time>
      </trkpt>
      <trkpt lat="44.5654" lon="7.0152">
        <ele>2466.4</ele>
        <time>2020-01-24T10:35:47Z</time>
      </trkpt>
      <trkpt lat="44.56538" lon="7.01518">
        <ele>2464.48</ele>
        <time>2020-01-24T10:35:51Z</time>
      </trkpt>
      <trkpt lat="44.56532" lon="7.01512">
        <ele>2461.59</ele>
        <time>2020-01-24T10:36:03Z</time>
      </trkpt>
      <trkpt lat="44.56534" lon="7.0151">
        <ele>2461.11</ele>
        <time>2020-01-24T10:36:11Z</time>
      </trkpt>
      <trkpt lat="44.56535" lon="7.01507">
        <ele>2460.63</ele>
        <time>2020-01-24T10:36:14Z</time>
      </trkpt>
      <trkpt lat="44.56539" lon="7.01506">
        <ele>2460.63</ele>
        <time>2020-01-24T10:36:25Z</time>
      </trkpt>
      <trkpt lat="44.56537" lon="7.01507">
        <ele>2461.59</ele>
        <time>2020-01-24T10:36:40Z</time>
      </trkpt>
      <trkpt lat="44.56543" lon="7.01502">
        <ele>2461.11</ele>
        <time>2020-01-24T10:36:45Z</time>
      </trkpt>
      <trkpt lat="44.56547" lon="7.01496">
        <ele>2457.27</ele>
        <time>2020-01-24T10:36:54Z</time>
      </trkpt>
      <trkpt lat="44.56549" lon="7.01497">
        <ele>2456.79</ele>
        <time>2020-01-24T10:36:56Z</time>
      </trkpt>
      <trkpt lat="44.56551" lon="7.01496">
        <ele>2455.82</ele>
        <time>2020-01-24T10:36:59Z</time>
      </trkpt>
      <trkpt lat="44.56555" lon="7.01492">
        <ele>2451.5</ele>
        <time>2020-01-24T10:37:07Z</time>
      </trkpt>
      <trkpt lat="44.56558" lon="7.01491">
        <ele>2450.54</ele>
        <time>2020-01-24T10:37:09Z</time>
      </trkpt>
      <trkpt lat="44.56563" lon="7.01487">
        <ele>2448.13</ele>
        <time>2020-01-24T10:37:14Z</time>
      </trkpt>
      <trkpt lat="44.56568" lon="7.01486">
        <ele>2446.21</ele>
        <time>2020-01-24T10:37:19Z</time>
      </trkpt>
      <trkpt lat="44.56568" lon="7.01478">
        <ele>2442.85</ele>
        <time>2020-01-24T10:37:25Z</time>
      </trkpt>
      <trkpt lat="44.5657" lon="7.01477">
        <ele>2440.92</ele>
        <time>2020-01-24T10:37:29Z</time>
      </trkpt>
      <trkpt lat="44.56569" lon="7.0147">
        <ele>2438.52</ele>
        <time>2020-01-24T10:37:34Z</time>
      </trkpt>
      <trkpt lat="44.56573" lon="7.01463">
        <ele>2437.08</ele>
        <time>2020-01-24T10:37:39Z</time>
      </trkpt>
      <trkpt lat="44.56575" lon="7.01444">
        <ele>2433.71</ele>
        <time>2020-01-24T10:37:46Z</time>
      </trkpt>
      <trkpt lat="44.56578" lon="7.01443">
        <ele>2432.27</ele>
        <time>2020-01-24T10:37:48Z</time>
      </trkpt>
      <trkpt lat="44.56585" lon="7.01433">
        <ele>2427.47</ele>
        <time>2020-01-24T10:37:55Z</time>
      </trkpt>
      <trkpt lat="44.56591" lon="7.01435">
        <ele>2424.1</ele>
        <time>2020-01-24T10:38:04Z</time>
      </trkpt>
      <trkpt lat="44.56593" lon="7.0142">
        <ele>2419.78</ele>
        <time>2020-01-24T10:38:11Z</time>
      </trkpt>
      <trkpt lat="44.56598" lon="7.01409">
        <ele>2418.33</ele>
        <time>2020-01-24T10:38:14Z</time>
      </trkpt>
      <trkpt lat="44.56603" lon="7.01382">
        <ele>2414.49</ele>
        <time>2020-01-24T10:38:21Z</time>
      </trkpt>
      <trkpt lat="44.56603" lon="7.01379">
        <ele>2413.05</ele>
        <time>2020-01-24T10:38:23Z</time>
      </trkpt>
      <trkpt lat="44.56604" lon="7.0137">
        <ele>2408.24</ele>
        <time>2020-01-24T10:38:36Z</time>
      </trkpt>
      <trkpt lat="44.56602" lon="7.01366">
        <ele>2405.84</ele>
        <time>2020-01-24T10:38:51Z</time>
      </trkpt>
      <trkpt lat="44.56602" lon="7.01363">
        <ele>2407.76</ele>
        <time>2020-01-24T10:38:56Z</time>
      </trkpt>
      <trkpt lat="44.56603" lon="7.0135">
        <ele>2407.28</ele>
        <time>2020-01-24T10:39:01Z</time>
      </trkpt>
      <trkpt lat="44.56607" lon="7.01344">
        <ele>2407.28</ele>
        <time>2020-01-24T10:39:04Z</time>
      </trkpt>
      <trkpt lat="44.56607" lon="7.01335">
        <ele>2406.8</ele>
        <time>2020-01-24T10:39:07Z</time>
      </trkpt>
      <trkpt lat="44.5661" lon="7.01332">
        <ele>2406.32</ele>
        <time>2020-01-24T10:39:15Z</time>
      </trkpt>
      <trkpt lat="44.56611" lon="7.01322">
        <ele>2403.43</ele>
        <time>2020-01-24T10:39:22Z</time>
      </trkpt>
      <trkpt lat="44.56611" lon="7.01322">
        <ele>2402.95</ele>
        <time>2020-01-24T10:39:23Z</time>
      </trkpt>
      <trkpt lat="44.56634" lon="7.01308">
        <ele>2399.11</ele>
        <time>2020-01-24T10:39:31Z</time>
      </trkpt>
      <trkpt lat="44.56641" lon="7.01303">
        <ele>2397.67</ele>
        <time>2020-01-24T10:39:33Z</time>
      </trkpt>
      <trkpt lat="44.5666" lon="7.01297">
        <ele>2393.34</ele>
        <time>2020-01-24T10:39:40Z</time>
      </trkpt>
      <trkpt lat="44.56665" lon="7.01296">
        <ele>2390.94</ele>
        <time>2020-01-24T10:39:55Z</time>
      </trkpt>
      <trkpt lat="44.56665" lon="7.01297">
        <ele>2391.42</ele>
        <time>2020-01-24T10:40:00Z</time>
      </trkpt>
      <trkpt lat="44.5667" lon="7.0129">
        <ele>2389.49</ele>
        <time>2020-01-24T10:40:04Z</time>
      </trkpt>
      <trkpt lat="44.56666" lon="7.01274">
        <ele>2384.69</ele>
        <time>2020-01-24T10:40:11Z</time>
      </trkpt>
      <trkpt lat="44.5667" lon="7.01264">
        <ele>2378.92</ele>
        <time>2020-01-24T10:40:17Z</time>
      </trkpt>
      <trkpt lat="44.56668" lon="7.01265">
        <ele>2376.04</ele>
        <time>2020-01-24T10:40:27Z</time>
      </trkpt>
      <trkpt lat="44.56666" lon="7.0126">
        <ele>2374.59</ele>
        <time>2020-01-24T10:40:31Z</time>
      </trkpt>
      <trkpt lat="44.56659" lon="7.01254">
        <ele>2374.11</ele>
        <time>2020-01-24T10:40:38Z</time>
      </trkpt>
      <trkpt lat="44.56639" lon="7.01243">
        <ele>2369.79</ele>
        <time>2020-01-24T10:40:49Z</time>
      </trkpt>
      <trkpt lat="44.56634" lon="7.01241">
        <ele>2368.83</ele>
        <time>2020-01-24T10:41:01Z</time>
      </trkpt>
      <trkpt lat="44.56637" lon="7.01235">
        <ele>2366.42</ele>
        <time>2020-01-24T10:41:06Z</time>
      </trkpt>
      <trkpt lat="44.56628" lon="7.01221">
        <ele>2361.62</ele>
        <time>2020-01-24T10:41:14Z</time>
      </trkpt>
      <trkpt lat="44.56628" lon="7.01216">
        <ele>2359.69</ele>
        <time>2020-01-24T10:41:16Z</time>
      </trkpt>
      <trkpt lat="44.56622" lon="7.0121">
        <ele>2357.77</ele>
        <time>2020-01-24T10:41:19Z</time>
      </trkpt>
      <trkpt lat="44.56617" lon="7.01206">
        <ele>2356.81</ele>
        <time>2020-01-24T10:41:30Z</time>
      </trkpt>
      <trkpt lat="44.56617" lon="7.01206">
        <ele>2356.81</ele>
        <time>2020-01-24T10:41:34Z</time>
      </trkpt>
      <trkpt lat="44.5663" lon="7.0119">
        <ele>2356.33</ele>
        <time>2020-01-24T10:41:42Z</time>
      </trkpt>
      <trkpt lat="44.56631" lon="7.01189">
        <ele>2356.33</ele>
        <time>2020-01-24T10:41:45Z</time>
      </trkpt>
      <trkpt lat="44.56644" lon="7.01179">
        <ele>2354.89</ele>
        <time>2020-01-24T10:41:55Z</time>
      </trkpt>
      <trkpt lat="44.56644" lon="7.01176">
        <ele>2354.89</ele>
        <time>2020-01-24T10:41:59Z</time>
      </trkpt>
      <trkpt lat="44.56641" lon="7.01169">
        <ele>2352.96</ele>
        <time>2020-01-24T10:42:13Z</time>
      </trkpt>
      <trkpt lat="44.5664" lon="7.01153">
        <ele>2349.6</ele>
        <time>2020-01-24T10:42:21Z</time>
      </trkpt>
      <trkpt lat="44.56637" lon="7.01144">
        <ele>2349.6</ele>
        <time>2020-01-24T10:42:24Z</time>
      </trkpt>
      <trkpt lat="44.56638" lon="7.0114">
        <ele>2351.04</ele>
        <time>2020-01-24T10:42:25Z</time>
      </trkpt>
      <trkpt lat="44.56644" lon="7.01126">
        <ele>2352.48</ele>
        <time>2020-01-24T10:42:30Z</time>
      </trkpt>
      <trkpt lat="44.56652" lon="7.01109">
        <ele>2350.08</ele>
        <time>2020-01-24T10:42:38Z</time>
      </trkpt>
      <trkpt lat="44.56659" lon="7.01104">
        <ele>2348.64</ele>
        <time>2020-01-24T10:42:41Z</time>
      </trkpt>
      <trkpt lat="44.56659" lon="7.01096">
        <ele>2348.16</ele>
        <time>2020-01-24T10:42:43Z</time>
      </trkpt>
      <trkpt lat="44.56657" lon="7.01082">
        <ele>2347.2</ele>
        <time>2020-01-24T10:42:46Z</time>
      </trkpt>
      <trkpt lat="44.56667" lon="7.01077">
        <ele>2346.72</ele>
        <time>2020-01-24T10:42:50Z</time>
      </trkpt>
      <trkpt lat="44.56672" lon="7.01076">
        <ele>2346.72</ele>
        <time>2020-01-24T10:42:51Z</time>
      </trkpt>
      <trkpt lat="44.56689" lon="7.01077">
        <ele>2348.16</ele>
        <time>2020-01-24T10:43:00Z</time>
      </trkpt>
      <trkpt lat="44.56688" lon="7.01075">
        <ele>2347.68</ele>
        <time>2020-01-24T10:43:03Z</time>
      </trkpt>
      <trkpt lat="44.5669" lon="7.01071">
        <ele>2347.68</ele>
        <time>2020-01-24T10:43:07Z</time>
      </trkpt>
      <trkpt lat="44.56699" lon="7.0107">
        <ele>2347.68</ele>
        <time>2020-01-24T10:43:11Z</time>
      </trkpt>
      <trkpt lat="44.56707" lon="7.0107">
        <ele>2346.23</ele>
        <time>2020-01-24T10:43:18Z</time>
      </trkpt>
      <trkpt lat="44.56706" lon="7.0106">
        <ele>2344.79</ele>
        <time>2020-01-24T10:43:22Z</time>
      </trkpt>
      <trkpt lat="44.56717" lon="7.01039">
        <ele>2341.43</ele>
        <time>2020-01-24T10:43:29Z</time>
      </trkpt>
      <trkpt lat="44.56733" lon="7.01038">
        <ele>2340.47</ele>
        <time>2020-01-24T10:43:34Z</time>
      </trkpt>
      <trkpt lat="44.5674" lon="7.01035">
        <ele>2339.51</ele>
        <time>2020-01-24T10:43:43Z</time>
      </trkpt>
      <trkpt lat="44.56744" lon="7.01026">
        <ele>2324.12</ele>
        <time>2020-01-24T10:44:02Z</time>
      </trkpt>
      <trkpt lat="44.56745" lon="7.01026">
        <ele>2323.16</ele>
        <time>2020-01-24T10:44:13Z</time>
      </trkpt>
      <trkpt lat="44.56746" lon="7.01023">
        <ele>2322.2</ele>
        <time>2020-01-24T10:44:17Z</time>
      </trkpt>
      <trkpt lat="44.56753" lon="7.01025">
        <ele>2322.2</ele>
        <time>2020-01-24T10:44:20Z</time>
      </trkpt>
      <trkpt lat="44.56754" lon="7.01004">
        <ele>2318.36</ele>
        <time>2020-01-24T10:44:26Z</time>
      </trkpt>
      <trkpt lat="44.56764" lon="7.00999">
        <ele>2314.51</ele>
        <time>2020-01-24T10:44:31Z</time>
      </trkpt>
      <trkpt lat="44.56771" lon="7.00999">
        <ele>2311.63</ele>
        <time>2020-01-24T10:44:37Z</time>
      </trkpt>
      <trkpt lat="44.56771" lon="7.00997">
        <ele>2311.63</ele>
        <time>2020-01-24T10:44:39Z</time>
      </trkpt>
      <trkpt lat="44.56766" lon="7.00984">
        <ele>2310.19</ele>
        <time>2020-01-24T10:44:44Z</time>
      </trkpt>
      <trkpt lat="44.56769" lon="7.0096">
        <ele>2302.49</ele>
        <time>2020-01-24T10:44:53Z</time>
      </trkpt>
      <trkpt lat="44.56769" lon="7.00952">
        <ele>2301.05</ele>
        <time>2020-01-24T10:44:56Z</time>
      </trkpt>
      <trkpt lat="44.56776" lon="7.00956">
        <ele>2300.57</ele>
        <time>2020-01-24T10:44:59Z</time>
      </trkpt>
      <trkpt lat="44.56776" lon="7.00949">
        <ele>2299.13</ele>
        <time>2020-01-24T10:45:05Z</time>
      </trkpt>
      <trkpt lat="44.56773" lon="7.00948">
        <ele>2299.13</ele>
        <time>2020-01-24T10:45:18Z</time>
      </trkpt>
      <trkpt lat="44.56773" lon="7.00935">
        <ele>2298.17</ele>
        <time>2020-01-24T10:45:23Z</time>
      </trkpt>
      <trkpt lat="44.56769" lon="7.00891">
        <ele>2295.77</ele>
        <time>2020-01-24T10:45:33Z</time>
      </trkpt>
      <trkpt lat="44.56772" lon="7.00887">
        <ele>2295.28</ele>
        <time>2020-01-24T10:45:35Z</time>
      </trkpt>
      <trkpt lat="44.56776" lon="7.00888">
        <ele>2295.28</ele>
        <time>2020-01-24T10:45:36Z</time>
      </trkpt>
      <trkpt lat="44.56779" lon="7.00874">
        <ele>2290.96</ele>
        <time>2020-01-24T10:45:43Z</time>
      </trkpt>
      <trkpt lat="44.56779" lon="7.00875">
        <ele>2289.52</ele>
        <time>2020-01-24T10:45:53Z</time>
      </trkpt>
      <trkpt lat="44.56776" lon="7.00867">
        <ele>2287.59</ele>
        <time>2020-01-24T10:45:59Z</time>
      </trkpt>
      <trkpt lat="44.56784" lon="7.00854">
        <ele>2283.75</ele>
        <time>2020-01-24T10:46:05Z</time>
      </trkpt>
      <trkpt lat="44.5678" lon="7.00839">
        <ele>2281.35</ele>
        <time>2020-01-24T10:46:09Z</time>
      </trkpt>
      <trkpt lat="44.56781" lon="7.00828">
        <ele>2280.87</ele>
        <time>2020-01-24T10:46:11Z</time>
      </trkpt>
      <trkpt lat="44.5677" lon="7.00814">
        <ele>2279.42</ele>
        <time>2020-01-24T10:46:16Z</time>
      </trkpt>
      <trkpt lat="44.5677" lon="7.00809">
        <ele>2278.46</ele>
        <time>2020-01-24T10:46:18Z</time>
      </trkpt>
      <trkpt lat="44.56772" lon="7.00805">
        <ele>2274.62</ele>
        <time>2020-01-24T10:46:26Z</time>
      </trkpt>
      <trkpt lat="44.56773" lon="7.00795">
        <ele>2265.96</ele>
        <time>2020-01-24T10:46:44Z</time>
      </trkpt>
      <trkpt lat="44.56773" lon="7.00792">
        <ele>2263.08</ele>
        <time>2020-01-24T10:46:45Z</time>
      </trkpt>
      <trkpt lat="44.56778" lon="7.00787">
        <ele>2261.64</ele>
        <time>2020-01-24T10:46:52Z</time>
      </trkpt>
      <trkpt lat="44.56785" lon="7.00777">
        <ele>2257.79</ele>
        <time>2020-01-24T10:46:58Z</time>
      </trkpt>
      <trkpt lat="44.56786" lon="7.00773">
        <ele>2256.35</ele>
        <time>2020-01-24T10:47:00Z</time>
      </trkpt>
      <trkpt lat="44.56796" lon="7.00769">
        <ele>2253.47</ele>
        <time>2020-01-24T10:47:05Z</time>
      </trkpt>
      <trkpt lat="44.56794" lon="7.0077">
        <ele>2252.03</ele>
        <time>2020-01-24T10:47:14Z</time>
      </trkpt>
      <trkpt lat="44.56796" lon="7.00761">
        <ele>2241.45</ele>
        <time>2020-01-24T10:47:29Z</time>
      </trkpt>
      <trkpt lat="44.56796" lon="7.00761">
        <ele>2241.45</ele>
        <time>2020-01-24T10:47:31Z</time>
      </trkpt>
      <trkpt lat="44.56804" lon="7.00744">
        <ele>2240.01</ele>
        <time>2020-01-24T10:47:38Z</time>
      </trkpt>
      <trkpt lat="44.56812" lon="7.00738">
        <ele>2239.05</ele>
        <time>2020-01-24T10:47:42Z</time>
      </trkpt>
      <trkpt lat="44.56818" lon="7.0073">
        <ele>2239.53</ele>
        <time>2020-01-24T10:47:44Z</time>
      </trkpt>
      <trkpt lat="44.56824" lon="7.00732">
        <ele>2239.53</ele>
        <time>2020-01-24T10:47:47Z</time>
      </trkpt>
      <trkpt lat="44.56837" lon="7.00706">
        <ele>2239.53</ele>
        <time>2020-01-24T10:47:53Z</time>
      </trkpt>
      <trkpt lat="44.56854" lon="7.00699">
        <ele>2235.2</ele>
        <time>2020-01-24T10:48:01Z</time>
      </trkpt>
      <trkpt lat="44.56856" lon="7.00695">
        <ele>2232.32</ele>
        <time>2020-01-24T10:48:15Z</time>
      </trkpt>
      <trkpt lat="44.56825" lon="7.00708">
        <ele>2219.34</ele>
        <time>2020-01-24T10:48:43Z</time>
      </trkpt>
      <trkpt lat="44.56823" lon="7.007">
        <ele>2210.21</ele>
        <time>2020-01-24T10:49:03Z</time>
      </trkpt>
      <trkpt lat="44.56823" lon="7.00705">
        <ele>2207.32</ele>
        <time>2020-01-24T10:49:22Z</time>
      </trkpt>
      <trkpt lat="44.56824" lon="7.00705">
        <ele>2207.81</ele>
        <time>2020-01-24T10:49:46Z</time>
      </trkpt>
      <trkpt lat="44.56822" lon="7.00707">
        <ele>2206.36</ele>
        <time>2020-01-24T10:49:55Z</time>
      </trkpt>
      <trkpt lat="44.56822" lon="7.00698">
        <ele>2206.36</ele>
        <time>2020-01-24T10:50:02Z</time>
      </trkpt>
      <trkpt lat="44.56822" lon="7.00688">
        <ele>2205.88</ele>
        <time>2020-01-24T10:50:06Z</time>
      </trkpt>
      <trkpt lat="44.56827" lon="7.00686">
        <ele>2205.4</ele>
        <time>2020-01-24T10:50:09Z</time>
      </trkpt>
      <trkpt lat="44.56835" lon="7.00676">
        <ele>2203.48</ele>
        <time>2020-01-24T10:50:17Z</time>
      </trkpt>
      <trkpt lat="44.56833" lon="7.0067">
        <ele>2202.04</ele>
        <time>2020-01-24T10:50:24Z</time>
      </trkpt>
      <trkpt lat="44.56833" lon="7.00663">
        <ele>2200.59</ele>
        <time>2020-01-24T10:50:28Z</time>
      </trkpt>
      <trkpt lat="44.56825" lon="7.00629">
        <ele>2194.35</ele>
        <time>2020-01-24T10:50:40Z</time>
      </trkpt>
      <trkpt lat="44.56825" lon="7.00619">
        <ele>2194.35</ele>
        <time>2020-01-24T10:50:43Z</time>
      </trkpt>
      <trkpt lat="44.56832" lon="7.00611">
        <ele>2193.87</ele>
        <time>2020-01-24T10:50:46Z</time>
      </trkpt>
      <trkpt lat="44.56833" lon="7.00593">
        <ele>2193.87</ele>
        <time>2020-01-24T10:50:50Z</time>
      </trkpt>
      <trkpt lat="44.56846" lon="7.00578">
        <ele>2194.35</ele>
        <time>2020-01-24T10:50:54Z</time>
      </trkpt>
      <trkpt lat="44.56852" lon="7.0057">
        <ele>2194.35</ele>
        <time>2020-01-24T10:50:56Z</time>
      </trkpt>
      <trkpt lat="44.56856" lon="7.00559">
        <ele>2194.35</ele>
        <time>2020-01-24T10:50:58Z</time>
      </trkpt>
      <trkpt lat="44.56858" lon="7.00555">
        <ele>2194.83</ele>
        <time>2020-01-24T10:50:59Z</time>
      </trkpt>
      <trkpt lat="44.56868" lon="7.00537">
        <ele>2192.9</ele>
        <time>2020-01-24T10:51:06Z</time>
      </trkpt>
      <trkpt lat="44.56862" lon="7.00534">
        <ele>2188.1</ele>
        <time>2020-01-24T10:51:22Z</time>
      </trkpt>
      <trkpt lat="44.56858" lon="7.00539">
        <ele>2186.18</ele>
        <time>2020-01-24T10:51:44Z</time>
      </trkpt>
      <trkpt lat="44.56854" lon="7.0054">
        <ele>2181.85</ele>
        <time>2020-01-24T10:52:01Z</time>
      </trkpt>
      <trkpt lat="44.56853" lon="7.00539">
        <ele>2172.24</ele>
        <time>2020-01-24T10:52:13Z</time>
      </trkpt>
      <trkpt lat="44.56852" lon="7.0054">
        <ele>2169.35</ele>
        <time>2020-01-24T10:52:31Z</time>
      </trkpt>
      <trkpt lat="44.56852" lon="7.00541">
        <ele>2168.87</ele>
        <time>2020-01-24T10:52:33Z</time>
      </trkpt>
      <trkpt lat="44.56857" lon="7.00538">
        <ele>2167.43</ele>
        <time>2020-01-24T10:52:37Z</time>
      </trkpt>
      <trkpt lat="44.5686" lon="7.00525">
        <ele>2165.03</ele>
        <time>2020-01-24T10:52:40Z</time>
      </trkpt>
      <trkpt lat="44.56868" lon="7.00505">
        <ele>2159.74</ele>
        <time>2020-01-24T10:52:45Z</time>
      </trkpt>
      <trkpt lat="44.56869" lon="7.00494">
        <ele>2157.34</ele>
        <time>2020-01-24T10:52:47Z</time>
      </trkpt>
      <trkpt lat="44.56874" lon="7.00489">
        <ele>2150.13</ele>
        <time>2020-01-24T10:52:55Z</time>
      </trkpt>
      <trkpt lat="44.56876" lon="7.00488">
        <ele>2145.8</ele>
        <time>2020-01-24T10:53:11Z</time>
      </trkpt>
      <trkpt lat="44.56875" lon="7.00489">
        <ele>2144.84</ele>
        <time>2020-01-24T10:53:19Z</time>
      </trkpt>
      <trkpt lat="44.56886" lon="7.00474">
        <ele>2143.88</ele>
        <time>2020-01-24T10:53:25Z</time>
      </trkpt>
      <trkpt lat="44.56887" lon="7.00465">
        <ele>2142.92</ele>
        <time>2020-01-24T10:53:27Z</time>
      </trkpt>
      <trkpt lat="44.56885" lon="7.00447">
        <ele>2141.47</ele>
        <time>2020-01-24T10:53:31Z</time>
      </trkpt>
      <trkpt lat="44.5689" lon="7.00435">
        <ele>2139.55</ele>
        <time>2020-01-24T10:53:34Z</time>
      </trkpt>
      <trkpt lat="44.56899" lon="7.00418">
        <ele>2133.78</ele>
        <time>2020-01-24T10:53:41Z</time>
      </trkpt>
      <trkpt lat="44.56896" lon="7.00415">
        <ele>2128.5</ele>
        <time>2020-01-24T10:53:57Z</time>
      </trkpt>
      <trkpt lat="44.56893" lon="7.00418">
        <ele>2126.57</ele>
        <time>2020-01-24T10:54:29Z</time>
      </trkpt>
      <trkpt lat="44.56896" lon="7.00419">
        <ele>2126.09</ele>
        <time>2020-01-24T10:55:01Z</time>
      </trkpt>
      <trkpt lat="44.56897" lon="7.00421">
        <ele>2124.17</ele>
        <time>2020-01-24T10:55:39Z</time>
      </trkpt>
      <trkpt lat="44.56896" lon="7.00414">
        <ele>2121.29</ele>
        <time>2020-01-24T10:55:59Z</time>
      </trkpt>
      <trkpt lat="44.56896" lon="7.00413">
        <ele>2121.77</ele>
        <time>2020-01-24T10:56:06Z</time>
      </trkpt>
      <trkpt lat="44.56905" lon="7.00415">
        <ele>2122.25</ele>
        <time>2020-01-24T10:56:13Z</time>
      </trkpt>
      <trkpt lat="44.56906" lon="7.00422">
        <ele>2124.17</ele>
        <time>2020-01-24T10:56:24Z</time>
      </trkpt>
      <trkpt lat="44.56906" lon="7.00421">
        <ele>2124.17</ele>
        <time>2020-01-24T10:56:25Z</time>
      </trkpt>
      <trkpt lat="44.56906" lon="7.00405">
        <ele>2125.61</ele>
        <time>2020-01-24T10:56:30Z</time>
      </trkpt>
      <trkpt lat="44.56917" lon="7.00401">
        <ele>2126.09</ele>
        <time>2020-01-24T10:56:34Z</time>
      </trkpt>
      <trkpt lat="44.56922" lon="7.00404">
        <ele>2125.13</ele>
        <time>2020-01-24T10:56:37Z</time>
      </trkpt>
      <trkpt lat="44.56926" lon="7.00389">
        <ele>2126.57</ele>
        <time>2020-01-24T10:56:41Z</time>
      </trkpt>
      <trkpt lat="44.56928" lon="7.0038">
        <ele>2127.05</ele>
        <time>2020-01-24T10:56:43Z</time>
      </trkpt>
      <trkpt lat="44.56935" lon="7.00371">
        <ele>2127.05</ele>
        <time>2020-01-24T10:56:45Z</time>
      </trkpt>
      <trkpt lat="44.56941" lon="7.00358">
        <ele>2126.57</ele>
        <time>2020-01-24T10:56:48Z</time>
      </trkpt>
      <trkpt lat="44.56944" lon="7.00355">
        <ele>2126.57</ele>
        <time>2020-01-24T10:56:49Z</time>
      </trkpt>
      <trkpt lat="44.56947" lon="7.00354">
        <ele>2126.57</ele>
        <time>2020-01-24T10:56:51Z</time>
      </trkpt>
      <trkpt lat="44.56958" lon="7.00339">
        <ele>2126.57</ele>
        <time>2020-01-24T10:56:54Z</time>
      </trkpt>
      <trkpt lat="44.56965" lon="7.00312">
        <ele>2120.81</ele>
        <time>2020-01-24T10:57:01Z</time>
      </trkpt>
      <trkpt lat="44.5697" lon="7.0031">
        <ele>2111.19</ele>
        <time>2020-01-24T10:57:17Z</time>
      </trkpt>
      <trkpt lat="44.5697" lon="7.00309">
        <ele>2106.87</ele>
        <time>2020-01-24T10:57:35Z</time>
      </trkpt>
      <trkpt lat="44.56969" lon="7.00309">
        <ele>2100.62</ele>
        <time>2020-01-24T10:58:05Z</time>
      </trkpt>
      <trkpt lat="44.56975" lon="7.0031">
        <ele>2097.25</ele>
        <time>2020-01-24T10:58:09Z</time>
      </trkpt>
      <trkpt lat="44.56985" lon="7.00298">
        <ele>2092.45</ele>
        <time>2020-01-24T10:58:15Z</time>
      </trkpt>
      <trkpt lat="44.56992" lon="7.00292">
        <ele>2091</ele>
        <time>2020-01-24T10:58:17Z</time>
      </trkpt>
      <trkpt lat="44.56998" lon="7.00286">
        <ele>2090.52</ele>
        <time>2020-01-24T10:58:19Z</time>
      </trkpt>
      <trkpt lat="44.57006" lon="7.00277">
        <ele>2090.04</ele>
        <time>2020-01-24T10:58:22Z</time>
      </trkpt>
      <trkpt lat="44.57008" lon="7.0027">
        <ele>2084.76</ele>
        <time>2020-01-24T10:58:33Z</time>
      </trkpt>
      <trkpt lat="44.57006" lon="7.00269">
        <ele>2078.51</ele>
        <time>2020-01-24T10:58:54Z</time>
      </trkpt>
      <trkpt lat="44.57002" lon="7.00272">
        <ele>2072.26</ele>
        <time>2020-01-24T10:59:20Z</time>
      </trkpt>
      <trkpt lat="44.57001" lon="7.0027">
        <ele>2072.74</ele>
        <time>2020-01-24T10:59:42Z</time>
      </trkpt>
      <trkpt lat="44.57011" lon="7.00255">
        <ele>2073.22</ele>
        <time>2020-01-24T10:59:48Z</time>
      </trkpt>
      <trkpt lat="44.57017" lon="7.00245">
        <ele>2073.22</ele>
        <time>2020-01-24T10:59:52Z</time>
      </trkpt>
      <trkpt lat="44.57033" lon="7.00239">
        <ele>2073.7</ele>
        <time>2020-01-24T10:59:58Z</time>
      </trkpt>
      <trkpt lat="44.57037" lon="7.00227">
        <ele>2073.22</ele>
        <time>2020-01-24T11:00:02Z</time>
      </trkpt>
      <trkpt lat="44.57037" lon="7.00222">
        <ele>2072.74</ele>
        <time>2020-01-24T11:00:12Z</time>
      </trkpt>
      <trkpt lat="44.57038" lon="7.00203">
        <ele>2068.89</ele>
        <time>2020-01-24T11:00:19Z</time>
      </trkpt>
      <trkpt lat="44.57031" lon="7.00188">
        <ele>2060.24</ele>
        <time>2020-01-24T11:00:31Z</time>
      </trkpt>
      <trkpt lat="44.57031" lon="7.00187">
        <ele>2060.24</ele>
        <time>2020-01-24T11:00:36Z</time>
      </trkpt>
      <trkpt lat="44.57031" lon="7.00184">
        <ele>2060.24</ele>
        <time>2020-01-24T11:00:38Z</time>
      </trkpt>
      <trkpt lat="44.5703" lon="7.00175">
        <ele>2059.76</ele>
        <time>2020-01-24T11:00:43Z</time>
      </trkpt>
      <trkpt lat="44.57026" lon="7.00152">
        <ele>2058.32</ele>
        <time>2020-01-24T11:00:50Z</time>
      </trkpt>
      <trkpt lat="44.57029" lon="7.00147">
        <ele>2058.8</ele>
        <time>2020-01-24T11:00:52Z</time>
      </trkpt>
      <trkpt lat="44.57024" lon="7.00133">
        <ele>2058.32</ele>
        <time>2020-01-24T11:00:56Z</time>
      </trkpt>
      <trkpt lat="44.57031" lon="7.0012">
        <ele>2058.8</ele>
        <time>2020-01-24T11:01:04Z</time>
      </trkpt>
      <trkpt lat="44.57033" lon="7.00104">
        <ele>2046.78</ele>
        <time>2020-01-24T11:01:28Z</time>
      </trkpt>
      <trkpt lat="44.57032" lon="7.00101">
        <ele>2044.86</ele>
        <time>2020-01-24T11:01:31Z</time>
      </trkpt>
      <trkpt lat="44.57021" lon="7.00091">
        <ele>2034.77</ele>
        <time>2020-01-24T11:01:40Z</time>
      </trkpt>
      <trkpt lat="44.57035" lon="7.00078">
        <ele>2033.33</ele>
        <time>2020-01-24T11:01:47Z</time>
      </trkpt>
      <trkpt lat="44.57042" lon="7.00073">
        <ele>2033.33</ele>
        <time>2020-01-24T11:01:52Z</time>
      </trkpt>
      <trkpt lat="44.57023" lon="7.00059">
        <ele>2028.52</ele>
        <time>2020-01-24T11:02:02Z</time>
      </trkpt>
      <trkpt lat="44.57022" lon="7.00058">
        <ele>2028.52</ele>
        <time>2020-01-24T11:02:03Z</time>
      </trkpt>
      <trkpt lat="44.57024" lon="7.00052">
        <ele>2026.12</ele>
        <time>2020-01-24T11:02:07Z</time>
      </trkpt>
      <trkpt lat="44.57021" lon="7.00036">
        <ele>2021.31</ele>
        <time>2020-01-24T11:02:14Z</time>
      </trkpt>
      <trkpt lat="44.57017" lon="7.00028">
        <ele>2017.94</ele>
        <time>2020-01-24T11:02:21Z</time>
      </trkpt>
      <trkpt lat="44.5701" lon="7.00022">
        <ele>2016.5</ele>
        <time>2020-01-24T11:02:35Z</time>
      </trkpt>
      <trkpt lat="44.5701" lon="7.00014">
        <ele>2009.77</ele>
        <time>2020-01-24T11:02:46Z</time>
      </trkpt>
      <trkpt lat="44.57009" lon="7.00003">
        <ele>2007.85</ele>
        <time>2020-01-24T11:02:50Z</time>
      </trkpt>
      <trkpt lat="44.57013" lon="6.99999">
        <ele>2006.41</ele>
        <time>2020-01-24T11:02:52Z</time>
      </trkpt>
      <trkpt lat="44.57019" lon="6.99988">
        <ele>2004.01</ele>
        <time>2020-01-24T11:02:57Z</time>
      </trkpt>
      <trkpt lat="44.57025" lon="6.99991">
        <ele>2004.01</ele>
        <time>2020-01-24T11:02:59Z</time>
      </trkpt>
      <trkpt lat="44.57028" lon="6.99988">
        <ele>2002.56</ele>
        <time>2020-01-24T11:03:02Z</time>
      </trkpt>
      <trkpt lat="44.57028" lon="6.99976">
        <ele>1998.24</ele>
        <time>2020-01-24T11:03:06Z</time>
      </trkpt>
      <trkpt lat="44.57017" lon="6.99934">
        <ele>1992.47</ele>
        <time>2020-01-24T11:03:17Z</time>
      </trkpt>
      <trkpt lat="44.5702" lon="6.99923">
        <ele>1991.03</ele>
        <time>2020-01-24T11:03:24Z</time>
      </trkpt>
      <trkpt lat="44.57016" lon="6.99913">
        <ele>1986.7</ele>
        <time>2020-01-24T11:03:34Z</time>
      </trkpt>
      <trkpt lat="44.57017" lon="6.99909">
        <ele>1983.82</ele>
        <time>2020-01-24T11:03:40Z</time>
      </trkpt>
      <trkpt lat="44.57002" lon="6.99894">
        <ele>1980.45</ele>
        <time>2020-01-24T11:03:49Z</time>
      </trkpt>
      <trkpt lat="44.57003" lon="6.99892">
        <ele>1976.61</ele>
        <time>2020-01-24T11:04:06Z</time>
      </trkpt>
      <trkpt lat="44.56995" lon="6.99885">
        <ele>1975.17</ele>
        <time>2020-01-24T11:04:13Z</time>
      </trkpt>
      <trkpt lat="44.56991" lon="6.99879">
        <ele>1974.2</ele>
        <time>2020-01-24T11:04:17Z</time>
      </trkpt>
      <trkpt lat="44.5699" lon="6.99874">
        <ele>1974.2</ele>
        <time>2020-01-24T11:04:20Z</time>
      </trkpt>
      <trkpt lat="44.56998" lon="6.99868">
        <ele>1974.69</ele>
        <time>2020-01-24T11:04:24Z</time>
      </trkpt>
      <trkpt lat="44.56999" lon="6.99866">
        <ele>1974.69</ele>
        <time>2020-01-24T11:04:25Z</time>
      </trkpt>
      <trkpt lat="44.5699" lon="6.99856">
        <ele>1972.28</ele>
        <time>2020-01-24T11:04:32Z</time>
      </trkpt>
      <trkpt lat="44.56991" lon="6.99848">
        <ele>1971.8</ele>
        <time>2020-01-24T11:04:35Z</time>
      </trkpt>
      <trkpt lat="44.56994" lon="6.99842">
        <ele>1972.76</ele>
        <time>2020-01-24T11:04:49Z</time>
      </trkpt>
      <trkpt lat="44.56993" lon="6.99843">
        <ele>1973.24</ele>
        <time>2020-01-24T11:04:58Z</time>
      </trkpt>
      <trkpt lat="44.5699" lon="6.99834">
        <ele>1973.72</ele>
        <time>2020-01-24T11:05:03Z</time>
      </trkpt>
      <trkpt lat="44.56967" lon="6.99813">
        <ele>1973.72</ele>
        <time>2020-01-24T11:05:13Z</time>
      </trkpt>
      <trkpt lat="44.56951" lon="6.99791">
        <ele>1969.4</ele>
        <time>2020-01-24T11:05:19Z</time>
      </trkpt>
      <trkpt lat="44.56947" lon="6.99781">
        <ele>1966.99</ele>
        <time>2020-01-24T11:05:23Z</time>
      </trkpt>
      <trkpt lat="44.56936" lon="6.99774">
        <ele>1966.03</ele>
        <time>2020-01-24T11:05:27Z</time>
      </trkpt>
      <trkpt lat="44.56936" lon="6.99761">
        <ele>1960.75</ele>
        <time>2020-01-24T11:05:38Z</time>
      </trkpt>
      <trkpt lat="44.56934" lon="6.99759">
        <ele>1959.78</ele>
        <time>2020-01-24T11:05:53Z</time>
      </trkpt>
      <trkpt lat="44.56938" lon="6.99756">
        <ele>1960.27</ele>
        <time>2020-01-24T11:05:56Z</time>
      </trkpt>
      <trkpt lat="44.56942" lon="6.99755">
        <ele>1961.23</ele>
        <time>2020-01-24T11:06:03Z</time>
      </trkpt>
      <trkpt lat="44.56943" lon="6.99753">
        <ele>1961.23</ele>
        <time>2020-01-24T11:06:04Z</time>
      </trkpt>
      <trkpt lat="44.56954" lon="6.99746">
        <ele>1962.19</ele>
        <time>2020-01-24T11:06:12Z</time>
      </trkpt>
      <trkpt lat="44.56955" lon="6.99746">
        <ele>1962.67</ele>
        <time>2020-01-24T11:06:13Z</time>
      </trkpt>
      <trkpt lat="44.56963" lon="6.99745">
        <ele>1963.63</ele>
        <time>2020-01-24T11:06:16Z</time>
      </trkpt>
      <trkpt lat="44.56961" lon="6.99738">
        <ele>1964.59</ele>
        <time>2020-01-24T11:06:20Z</time>
      </trkpt>
      <trkpt lat="44.56977" lon="6.99721">
        <ele>1966.03</ele>
        <time>2020-01-24T11:06:28Z</time>
      </trkpt>
      <trkpt lat="44.5698" lon="6.99718">
        <ele>1966.51</ele>
        <time>2020-01-24T11:06:34Z</time>
      </trkpt>
      <trkpt lat="44.56984" lon="6.99713">
        <ele>1967.48</ele>
        <time>2020-01-24T11:06:42Z</time>
      </trkpt>
      <trkpt lat="44.56987" lon="6.99712">
        <ele>1967.96</ele>
        <time>2020-01-24T11:06:47Z</time>
      </trkpt>
      <trkpt lat="44.56987" lon="6.99708">
        <ele>1967.96</ele>
        <time>2020-01-24T11:06:48Z</time>
      </trkpt>
      <trkpt lat="44.56989" lon="6.99704">
        <ele>1967.96</ele>
        <time>2020-01-24T11:06:49Z</time>
      </trkpt>
      <trkpt lat="44.56993" lon="6.99701">
        <ele>1967.96</ele>
        <time>2020-01-24T11:06:50Z</time>
      </trkpt>
      <trkpt lat="44.57" lon="6.99701">
        <ele>1968.44</ele>
        <time>2020-01-24T11:06:52Z</time>
      </trkpt>
      <trkpt lat="44.57003" lon="6.997">
        <ele>1968.44</ele>
        <time>2020-01-24T11:06:53Z</time>
      </trkpt>
      <trkpt lat="44.57005" lon="6.99696">
        <ele>1968.44</ele>
        <time>2020-01-24T11:06:54Z</time>
      </trkpt>
      <trkpt lat="44.57003" lon="6.99691">
        <ele>1968.44</ele>
        <time>2020-01-24T11:06:56Z</time>
      </trkpt>
      <trkpt lat="44.57" lon="6.99682">
        <ele>1956.9</ele>
        <time>2020-01-24T11:07:08Z</time>
      </trkpt>
      <trkpt lat="44.56996" lon="6.99683">
        <ele>1956.42</ele>
        <time>2020-01-24T11:07:20Z</time>
      </trkpt>
      <trkpt lat="44.56997" lon="6.99682">
        <ele>1956.42</ele>
        <time>2020-01-24T11:07:21Z</time>
      </trkpt>
      <trkpt lat="44.56998" lon="6.99682">
        <ele>1956.9</ele>
        <time>2020-01-24T11:07:31Z</time>
      </trkpt>
      <trkpt lat="44.57007" lon="6.99679">
        <ele>1957.38</ele>
        <time>2020-01-24T11:07:35Z</time>
      </trkpt>
      <trkpt lat="44.57018" lon="6.9968">
        <ele>1958.34</ele>
        <time>2020-01-24T11:07:46Z</time>
      </trkpt>
      <trkpt lat="44.57026" lon="6.99685">
        <ele>1951.61</ele>
        <time>2020-01-24T11:07:53Z</time>
      </trkpt>
      <trkpt lat="44.57026" lon="6.99679">
        <ele>1952.09</ele>
        <time>2020-01-24T11:08:00Z</time>
      </trkpt>
      <trkpt lat="44.57025" lon="6.99678">
        <ele>1952.57</ele>
        <time>2020-01-24T11:08:01Z</time>
      </trkpt>
      <trkpt lat="44.57022" lon="6.99674">
        <ele>1952.57</ele>
        <time>2020-01-24T11:08:03Z</time>
      </trkpt>
      <trkpt lat="44.57021" lon="6.99669">
        <ele>1953.06</ele>
        <time>2020-01-24T11:08:14Z</time>
      </trkpt>
      <trkpt lat="44.57039" lon="6.99667">
        <ele>1953.54</ele>
        <time>2020-01-24T11:08:21Z</time>
      </trkpt>
      <trkpt lat="44.57041" lon="6.99661">
        <ele>1948.25</ele>
        <time>2020-01-24T11:08:25Z</time>
      </trkpt>
      <trkpt lat="44.57031" lon="6.99631">
        <ele>1914.6</ele>
        <time>2020-01-24T11:08:35Z</time>
      </trkpt>
      <trkpt lat="44.57031" lon="6.99622">
        <ele>1910.28</ele>
        <time>2020-01-24T11:08:39Z</time>
      </trkpt>
      <trkpt lat="44.57028" lon="6.99621">
        <ele>1906.91</ele>
        <time>2020-01-24T11:08:51Z</time>
      </trkpt>
      <trkpt lat="44.57026" lon="6.99616">
        <ele>1906.91</ele>
        <time>2020-01-24T11:08:56Z</time>
      </trkpt>
      <trkpt lat="44.57028" lon="6.99615">
        <ele>1901.14</ele>
        <time>2020-01-24T11:09:09Z</time>
      </trkpt>
      <trkpt lat="44.57028" lon="6.99613">
        <ele>1901.14</ele>
        <time>2020-01-24T11:09:12Z</time>
      </trkpt>
      <trkpt lat="44.57039" lon="6.99606">
        <ele>1895.86</ele>
        <time>2020-01-24T11:09:20Z</time>
      </trkpt>
      <trkpt lat="44.5705" lon="6.99599">
        <ele>1889.61</ele>
        <time>2020-01-24T11:09:27Z</time>
      </trkpt>
      <trkpt lat="44.57053" lon="6.99596">
        <ele>1885.76</ele>
        <time>2020-01-24T11:09:31Z</time>
      </trkpt>
      <trkpt lat="44.57065" lon="6.99593">
        <ele>1882.4</ele>
        <time>2020-01-24T11:09:37Z</time>
      </trkpt>
      <trkpt lat="44.5707" lon="6.99594">
        <ele>1881.44</ele>
        <time>2020-01-24T11:09:46Z</time>
      </trkpt>
      <trkpt lat="44.57074" lon="6.99596">
        <ele>1877.11</ele>
        <time>2020-01-24T11:09:53Z</time>
      </trkpt>
      <trkpt lat="44.57073" lon="6.99588">
        <ele>1876.15</ele>
        <time>2020-01-24T11:10:00Z</time>
      </trkpt>
      <trkpt lat="44.57073" lon="6.99585">
        <ele>1874.23</ele>
        <time>2020-01-24T11:10:06Z</time>
      </trkpt>
      <trkpt lat="44.57072" lon="6.9958">
        <ele>1874.71</ele>
        <time>2020-01-24T11:10:11Z</time>
      </trkpt>
      <trkpt lat="44.57069" lon="6.9957">
        <ele>1874.71</ele>
        <time>2020-01-24T11:10:19Z</time>
      </trkpt>
      <trkpt lat="44.57066" lon="6.99562">
        <ele>1875.19</ele>
        <time>2020-01-24T11:10:44Z</time>
      </trkpt>
      <trkpt lat="44.57078" lon="6.99563">
        <ele>1877.59</ele>
        <time>2020-01-24T11:10:53Z</time>
      </trkpt>
      <trkpt lat="44.5708" lon="6.99555">
        <ele>1879.03</ele>
        <time>2020-01-24T11:11:24Z</time>
      </trkpt>
      <trkpt lat="44.5708" lon="6.99565">
        <ele>1872.79</ele>
        <time>2020-01-24T11:11:43Z</time>
      </trkpt>
      <trkpt lat="44.5708" lon="6.99565">
        <ele>1862.21</ele>
        <time>2020-01-24T11:12:12Z</time>
      </trkpt>
      <trkpt lat="44.57079" lon="6.99566">
        <ele>1866.06</ele>
        <time>2020-01-24T11:12:49Z</time>
      </trkpt>
      <trkpt lat="44.57079" lon="6.99565">
        <ele>1865.09</ele>
        <time>2020-01-24T11:13:16Z</time>
      </trkpt>
      <trkpt lat="44.57079" lon="6.99565">
        <ele>1862.69</ele>
        <time>2020-01-24T11:13:34Z</time>
      </trkpt>
      <trkpt lat="44.57087" lon="6.99561">
        <ele>1862.21</ele>
        <time>2020-01-24T11:13:50Z</time>
      </trkpt>
      <trkpt lat="44.57097" lon="6.99561">
        <ele>1863.17</ele>
        <time>2020-01-24T11:13:57Z</time>
      </trkpt>
      <trkpt lat="44.57112" lon="6.99557">
        <ele>1863.65</ele>
        <time>2020-01-24T11:14:06Z</time>
      </trkpt>
      <trkpt lat="44.57116" lon="6.99557">
        <ele>1864.13</ele>
        <time>2020-01-24T11:14:24Z</time>
      </trkpt>
      <trkpt lat="44.57117" lon="6.99556">
        <ele>1864.13</ele>
        <time>2020-01-24T11:14:25Z</time>
      </trkpt>
      <trkpt lat="44.57125" lon="6.99547">
        <ele>1863.17</ele>
        <time>2020-01-24T11:14:33Z</time>
      </trkpt>
      <trkpt lat="44.57124" lon="6.99539">
        <ele>1861.73</ele>
        <time>2020-01-24T11:14:39Z</time>
      </trkpt>
      <trkpt lat="44.57131" lon="6.99537">
        <ele>1860.77</ele>
        <time>2020-01-24T11:14:42Z</time>
      </trkpt>
      <trkpt lat="44.57135" lon="6.9954">
        <ele>1860.29</ele>
        <time>2020-01-24T11:14:46Z</time>
      </trkpt>
      <trkpt lat="44.5713" lon="6.99512">
        <ele>1858.85</ele>
        <time>2020-01-24T11:14:55Z</time>
      </trkpt>
      <trkpt lat="44.57126" lon="6.99507">
        <ele>1857.4</ele>
        <time>2020-01-24T11:15:01Z</time>
      </trkpt>
      <trkpt lat="44.5714" lon="6.99502">
        <ele>1857.4</ele>
        <time>2020-01-24T11:15:08Z</time>
      </trkpt>
      <trkpt lat="44.57138" lon="6.99494">
        <ele>1857.89</ele>
        <time>2020-01-24T11:15:13Z</time>
      </trkpt>
      <trkpt lat="44.57139" lon="6.99492">
        <ele>1857.89</ele>
        <time>2020-01-24T11:15:14Z</time>
      </trkpt>
      <trkpt lat="44.57155" lon="6.99492">
        <ele>1858.37</ele>
        <time>2020-01-24T11:15:19Z</time>
      </trkpt>
      <trkpt lat="44.57168" lon="6.99503">
        <ele>1858.85</ele>
        <time>2020-01-24T11:15:23Z</time>
      </trkpt>
      <trkpt lat="44.57172" lon="6.99505">
        <ele>1855.48</ele>
        <time>2020-01-24T11:15:27Z</time>
      </trkpt>
      <trkpt lat="44.57175" lon="6.99493">
        <ele>1853.56</ele>
        <time>2020-01-24T11:15:38Z</time>
      </trkpt>
      <trkpt lat="44.57174" lon="6.99491">
        <ele>1853.56</ele>
        <time>2020-01-24T11:15:40Z</time>
      </trkpt>
      <trkpt lat="44.57175" lon="6.99476">
        <ele>1851.16</ele>
        <time>2020-01-24T11:15:51Z</time>
      </trkpt>
      <trkpt lat="44.57175" lon="6.99475">
        <ele>1849.71</ele>
        <time>2020-01-24T11:16:04Z</time>
      </trkpt>
      <trkpt lat="44.57174" lon="6.99474">
        <ele>1842.02</ele>
        <time>2020-01-24T11:16:16Z</time>
      </trkpt>
      <trkpt lat="44.5717" lon="6.9946">
        <ele>1838.66</ele>
        <time>2020-01-24T11:16:25Z</time>
      </trkpt>
      <trkpt lat="44.57165" lon="6.99451">
        <ele>1837.7</ele>
        <time>2020-01-24T11:16:32Z</time>
      </trkpt>
      <trkpt lat="44.57159" lon="6.99426">
        <ele>1835.29</ele>
        <time>2020-01-24T11:16:38Z</time>
      </trkpt>
      <trkpt lat="44.57169" lon="6.9942">
        <ele>1833.37</ele>
        <time>2020-01-24T11:16:41Z</time>
      </trkpt>
      <trkpt lat="44.57173" lon="6.99419">
        <ele>1833.37</ele>
        <time>2020-01-24T11:16:42Z</time>
      </trkpt>
      <trkpt lat="44.5718" lon="6.99416">
        <ele>1833.37</ele>
        <time>2020-01-24T11:16:44Z</time>
      </trkpt>
      <trkpt lat="44.57182" lon="6.99415">
        <ele>1832.89</ele>
        <time>2020-01-24T11:16:45Z</time>
      </trkpt>
      <trkpt lat="44.57185" lon="6.99414">
        <ele>1832.41</ele>
        <time>2020-01-24T11:16:46Z</time>
      </trkpt>
      <trkpt lat="44.57187" lon="6.99416">
        <ele>1832.41</ele>
        <time>2020-01-24T11:16:47Z</time>
      </trkpt>
      <trkpt lat="44.57199" lon="6.99428">
        <ele>1826.16</ele>
        <time>2020-01-24T11:16:55Z</time>
      </trkpt>
      <trkpt lat="44.57199" lon="6.99423">
        <ele>1820.87</ele>
        <time>2020-01-24T11:17:05Z</time>
      </trkpt>
      <trkpt lat="44.572" lon="6.99423">
        <ele>1816.55</ele>
        <time>2020-01-24T11:17:24Z</time>
      </trkpt>
      <trkpt lat="44.57212" lon="6.99422">
        <ele>1810.78</ele>
        <time>2020-01-24T11:17:30Z</time>
      </trkpt>
      <trkpt lat="44.57215" lon="6.99428">
        <ele>1809.34</ele>
        <time>2020-01-24T11:17:31Z</time>
      </trkpt>
      <trkpt lat="44.57221" lon="6.99444">
        <ele>1806.94</ele>
        <time>2020-01-24T11:17:34Z</time>
      </trkpt>
      <trkpt lat="44.5723" lon="6.99448">
        <ele>1806.94</ele>
        <time>2020-01-24T11:17:36Z</time>
      </trkpt>
      <trkpt lat="44.57234" lon="6.99452">
        <ele>1806.45</ele>
        <time>2020-01-24T11:17:37Z</time>
      </trkpt>
      <trkpt lat="44.57242" lon="6.99469">
        <ele>1805.97</ele>
        <time>2020-01-24T11:17:40Z</time>
      </trkpt>
      <trkpt lat="44.57242" lon="6.99473">
        <ele>1805.97</ele>
        <time>2020-01-24T11:17:41Z</time>
      </trkpt>
      <trkpt lat="44.57263" lon="6.99474">
        <ele>1801.65</ele>
        <time>2020-01-24T11:17:46Z</time>
      </trkpt>
      <trkpt lat="44.57289" lon="6.99491">
        <ele>1796.84</ele>
        <time>2020-01-24T11:17:52Z</time>
      </trkpt>
      <trkpt lat="44.57329" lon="6.99475">
        <ele>1784.82</ele>
        <time>2020-01-24T11:18:02Z</time>
      </trkpt>
      <trkpt lat="44.57332" lon="6.99465">
        <ele>1780.5</ele>
        <time>2020-01-24T11:18:11Z</time>
      </trkpt>
      <trkpt lat="44.57332" lon="6.99466">
        <ele>1776.65</ele>
        <time>2020-01-24T11:18:24Z</time>
      </trkpt>
      <trkpt lat="44.57332" lon="6.99466">
        <ele>1776.17</ele>
        <time>2020-01-24T11:18:26Z</time>
      </trkpt>
      <trkpt lat="44.57334" lon="6.99464">
        <ele>1774.73</ele>
        <time>2020-01-24T11:18:28Z</time>
      </trkpt>
      <trkpt lat="44.57336" lon="6.99464">
        <ele>1774.25</ele>
        <time>2020-01-24T11:18:29Z</time>
      </trkpt>
      <trkpt lat="44.57338" lon="6.99464">
        <ele>1773.77</ele>
        <time>2020-01-24T11:18:30Z</time>
      </trkpt>
      <trkpt lat="44.5734" lon="6.99464">
        <ele>1773.29</ele>
        <time>2020-01-24T11:18:31Z</time>
      </trkpt>
      <trkpt lat="44.57343" lon="6.99463">
        <ele>1772.33</ele>
        <time>2020-01-24T11:18:35Z</time>
      </trkpt>
      <trkpt lat="44.57345" lon="6.99461">
        <ele>1772.33</ele>
        <time>2020-01-24T11:18:36Z</time>
      </trkpt>
      <trkpt lat="44.57353" lon="6.99449">
        <ele>1770.89</ele>
        <time>2020-01-24T11:18:40Z</time>
      </trkpt>
      <trkpt lat="44.57361" lon="6.99423">
        <ele>1769.44</ele>
        <time>2020-01-24T11:18:48Z</time>
      </trkpt>
      <trkpt lat="44.57363" lon="6.9942">
        <ele>1767.52</ele>
        <time>2020-01-24T11:18:56Z</time>
      </trkpt>
      <trkpt lat="44.57366" lon="6.99415">
        <ele>1765.12</ele>
        <time>2020-01-24T11:19:06Z</time>
      </trkpt>
      <trkpt lat="44.57368" lon="6.99412">
        <ele>1764.64</ele>
        <time>2020-01-24T11:19:09Z</time>
      </trkpt>
      <trkpt lat="44.57395" lon="6.99415">
        <ele>1761.75</ele>
        <time>2020-01-24T11:19:21Z</time>
      </trkpt>
      <trkpt lat="44.57397" lon="6.99415">
        <ele>1761.27</ele>
        <time>2020-01-24T11:19:22Z</time>
      </trkpt>
      <trkpt lat="44.57401" lon="6.99413">
        <ele>1759.83</ele>
        <time>2020-01-24T11:19:35Z</time>
      </trkpt>
      <trkpt lat="44.57401" lon="6.99409">
        <ele>1755.02</ele>
        <time>2020-01-24T11:19:54Z</time>
      </trkpt>
      <trkpt lat="44.57402" lon="6.99405">
        <ele>1752.62</ele>
        <time>2020-01-24T11:20:05Z</time>
      </trkpt>
      <trkpt lat="44.57411" lon="6.99394">
        <ele>1751.66</ele>
        <time>2020-01-24T11:20:15Z</time>
      </trkpt>
      <trkpt lat="44.57412" lon="6.99386">
        <ele>1753.1</ele>
        <time>2020-01-24T11:20:27Z</time>
      </trkpt>
      <trkpt lat="44.57411" lon="6.99378">
        <ele>1752.14</ele>
        <time>2020-01-24T11:20:38Z</time>
      </trkpt>
      <trkpt lat="44.57411" lon="6.99376">
        <ele>1751.66</ele>
        <time>2020-01-24T11:20:45Z</time>
      </trkpt>
      <trkpt lat="44.57408" lon="6.99369">
        <ele>1753.1</ele>
        <time>2020-01-24T11:20:56Z</time>
      </trkpt>
      <trkpt lat="44.57407" lon="6.99361">
        <ele>1754.54</ele>
        <time>2020-01-24T11:21:07Z</time>
      </trkpt>
      <trkpt lat="44.57407" lon="6.99352">
        <ele>1755.02</ele>
        <time>2020-01-24T11:21:19Z</time>
      </trkpt>
      <trkpt lat="44.57406" lon="6.99347">
        <ele>1757.43</ele>
        <time>2020-01-24T11:21:32Z</time>
      </trkpt>
      <trkpt lat="44.57404" lon="6.99343">
        <ele>1756.95</ele>
        <time>2020-01-24T11:21:43Z</time>
      </trkpt>
      <trkpt lat="44.57403" lon="6.99339">
        <ele>1755.02</ele>
        <time>2020-01-24T11:21:53Z</time>
      </trkpt>
      <trkpt lat="44.57402" lon="6.99325">
        <ele>1755.02</ele>
        <time>2020-01-24T11:22:03Z</time>
      </trkpt>
      <trkpt lat="44.57403" lon="6.99317">
        <ele>1756.95</ele>
        <time>2020-01-24T11:22:13Z</time>
      </trkpt>
      <trkpt lat="44.57405" lon="6.99308">
        <ele>1757.43</ele>
        <time>2020-01-24T11:22:22Z</time>
      </trkpt>
      <trkpt lat="44.57407" lon="6.99303">
        <ele>1755.99</ele>
        <time>2020-01-24T11:22:32Z</time>
      </trkpt>
      <trkpt lat="44.57409" lon="6.99301">
        <ele>1755.02</ele>
        <time>2020-01-24T11:22:37Z</time>
      </trkpt>
      <trkpt lat="44.57415" lon="6.99293">
        <ele>1754.54</ele>
        <time>2020-01-24T11:22:47Z</time>
      </trkpt>
      <trkpt lat="44.57415" lon="6.99293">
        <ele>1754.54</ele>
        <time>2020-01-24T11:22:48Z</time>
      </trkpt>
      <trkpt lat="44.57417" lon="6.9929">
        <ele>1754.54</ele>
        <time>2020-01-24T11:22:50Z</time>
      </trkpt>
      <trkpt lat="44.57424" lon="6.99285">
        <ele>1753.58</ele>
        <time>2020-01-24T11:23:01Z</time>
      </trkpt>
      <trkpt lat="44.57429" lon="6.9928">
        <ele>1755.99</ele>
        <time>2020-01-24T11:23:12Z</time>
      </trkpt>
      <trkpt lat="44.5743" lon="6.99279">
        <ele>1757.91</ele>
        <time>2020-01-24T11:23:27Z</time>
      </trkpt>
      <trkpt lat="44.5743" lon="6.99275">
        <ele>1756.47</ele>
        <time>2020-01-24T11:23:43Z</time>
      </trkpt>
      <trkpt lat="44.57433" lon="6.99277">
        <ele>1765.6</ele>
        <time>2020-01-24T11:24:19Z</time>
      </trkpt>
      <trkpt lat="44.5744" lon="6.99279">
        <ele>1768.48</ele>
        <time>2020-01-24T11:24:50Z</time>
      </trkpt>
      <trkpt lat="44.57437" lon="6.99272">
        <ele>1766.56</ele>
        <time>2020-01-24T11:25:25Z</time>
      </trkpt>
      <trkpt lat="44.57436" lon="6.99279">
        <ele>1774.25</ele>
        <time>2020-01-24T11:26:07Z</time>
      </trkpt>
      <trkpt lat="44.5743" lon="6.99275">
        <ele>1777.13</ele>
        <time>2020-01-24T11:26:39Z</time>
      </trkpt>
      <trkpt lat="44.57436" lon="6.99272">
        <ele>1768.48</ele>
        <time>2020-01-24T11:27:12Z</time>
      </trkpt>
      <trkpt lat="44.57437" lon="6.99277">
        <ele>1771.85</ele>
        <time>2020-01-24T11:27:49Z</time>
      </trkpt>
      <trkpt lat="44.57429" lon="6.99274">
        <ele>1769.44</ele>
        <time>2020-01-24T11:28:27Z</time>
      </trkpt>
      <trkpt lat="44.57433" lon="6.9927">
        <ele>1772.33</ele>
        <time>2020-01-24T11:29:07Z</time>
      </trkpt>
      <trkpt lat="44.57431" lon="6.99275">
        <ele>1774.25</ele>
        <time>2020-01-24T11:29:34Z</time>
      </trkpt>
      <trkpt lat="44.57431" lon="6.99275">
        <ele>1768.48</ele>
        <time>2020-01-24T11:29:59Z</time>
      </trkpt>
      <trkpt lat="44.57427" lon="6.99274">
        <ele>1765.6</ele>
        <time>2020-01-24T11:30:37Z</time>
      </trkpt>
      <trkpt lat="44.57427" lon="6.99273">
        <ele>1759.83</ele>
        <time>2020-01-24T11:30:45Z</time>
      </trkpt>
      <trkpt lat="44.5743" lon="6.99284">
        <ele>1755.99</ele>
        <time>2020-01-24T11:30:55Z</time>
      </trkpt>
      <trkpt lat="44.5743" lon="6.99285">
        <ele>1756.95</ele>
        <time>2020-01-24T11:31:32Z</time>
      </trkpt>
      <trkpt lat="44.57435" lon="6.99286">
        <ele>1758.87</ele>
        <time>2020-01-24T11:32:03Z</time>
      </trkpt>
      <trkpt lat="44.57435" lon="6.99288">
        <ele>1755.99</ele>
        <time>2020-01-24T11:32:34Z</time>
      </trkpt>
      <trkpt lat="44.57436" lon="6.99287">
        <ele>1758.39</ele>
        <time>2020-01-24T11:32:56Z</time>
      </trkpt>
      <trkpt lat="44.5744" lon="6.99285">
        <ele>1756.47</ele>
        <time>2020-01-24T11:33:34Z</time>
      </trkpt>
      <trkpt lat="44.57436" lon="6.99287">
        <ele>1755.99</ele>
        <time>2020-01-24T11:34:14Z</time>
      </trkpt>
      <trkpt lat="44.57439" lon="6.99281">
        <ele>1755.02</ele>
        <time>2020-01-24T11:35:01Z</time>
      </trkpt>
      <trkpt lat="44.57439" lon="6.99283">
        <ele>1758.87</ele>
        <time>2020-01-24T11:35:31Z</time>
      </trkpt>
      <trkpt lat="44.57437" lon="6.99283">
        <ele>1754.54</ele>
        <time>2020-01-24T11:35:56Z</time>
      </trkpt>
      <trkpt lat="44.57436" lon="6.99279">
        <ele>1756.47</ele>
        <time>2020-01-24T11:36:29Z</time>
      </trkpt>
      <trkpt lat="44.57435" lon="6.99282">
        <ele>1755.99</ele>
        <time>2020-01-24T11:36:51Z</time>
      </trkpt>
      <trkpt lat="44.57437" lon="6.99284">
        <ele>1755.02</ele>
        <time>2020-01-24T11:37:00Z</time>
      </trkpt>
      <trkpt lat="44.57437" lon="6.99283">
        <ele>1755.02</ele>
        <time>2020-01-24T11:37:01Z</time>
      </trkpt>
      <trkpt lat="44.57436" lon="6.99277">
        <ele>1754.54</ele>
        <time>2020-01-24T11:37:03Z</time>
      </trkpt>
    </trkseg>
  </trk>
</gpx>